<?xml version="1.0" encoding="UTF-8" standalone="no" ?>
<gpx xmlns="http://www.topografix.com/GPX/1/1" xmlns:xsi="http://www.w3.org/2001/XMLSchema-instance" xsi:schemaLocation="http://www.topografix.com/GPX/1/1 http://www.topografix.com/GPX/1/1/gpx.xsd" version="1.1" creator="VisuGPX - https://www.visugpx.com">
  <metadata>
    <name>Autour de La Roche</name>
    <desc><![CDATA[La Roche / Amancy / Les Arculinges / Amancy / La Roche]]></desc>
  </metadata>
  <trk>
    <name><![CDATA[30 juillet 2016]]></name>
    <desc><![CDATA[La Roche / Amancy / Les Arculinges / Amancy / La Roche]]></desc>
    <trkseg>
      <trkpt lat="46.06707" lon="6.31969">
        <ele>582</ele>
        <time>2016-07-30T07:04:56.000Z</time>
      </trkpt>
      <trkpt lat="46.06713" lon="6.31981">
        <ele>579</ele>
        <time>2016-07-30T07:05:06.000Z</time>
      </trkpt>
      <trkpt lat="46.06714" lon="6.31967">
        <ele>577</ele>
        <time>2016-07-30T07:05:28.000Z</time>
      </trkpt>
      <trkpt lat="46.06716" lon="6.31954">
        <ele>572</ele>
        <time>2016-07-30T07:05:40.000Z</time>
      </trkpt>
      <trkpt lat="46.06711" lon="6.31942">
        <ele>577</ele>
        <time>2016-07-30T07:05:48.000Z</time>
      </trkpt>
      <trkpt lat="46.06718" lon="6.31932">
        <ele>576</ele>
        <time>2016-07-30T07:05:55.000Z</time>
      </trkpt>
      <trkpt lat="46.06725" lon="6.31923">
        <ele>574</ele>
        <time>2016-07-30T07:06:01.000Z</time>
      </trkpt>
      <trkpt lat="46.06734" lon="6.31916">
        <ele>575</ele>
        <time>2016-07-30T07:06:08.000Z</time>
      </trkpt>
      <trkpt lat="46.06741" lon="6.31905">
        <ele>571</ele>
        <time>2016-07-30T07:06:19.000Z</time>
      </trkpt>
      <trkpt lat="46.06751" lon="6.31899">
        <ele>573</ele>
        <time>2016-07-30T07:06:26.000Z</time>
      </trkpt>
      <trkpt lat="46.06759" lon="6.31894">
        <ele>573</ele>
        <time>2016-07-30T07:06:32.000Z</time>
      </trkpt>
      <trkpt lat="46.06768" lon="6.31884">
        <ele>575</ele>
        <time>2016-07-30T07:06:38.000Z</time>
      </trkpt>
      <trkpt lat="46.06776" lon="6.31875">
        <ele>573</ele>
        <time>2016-07-30T07:06:43.000Z</time>
      </trkpt>
      <trkpt lat="46.06783" lon="6.31867">
        <ele>577</ele>
        <time>2016-07-30T07:06:51.000Z</time>
      </trkpt>
      <trkpt lat="46.06793" lon="6.31868">
        <ele>576</ele>
        <time>2016-07-30T07:06:57.000Z</time>
      </trkpt>
      <trkpt lat="46.068" lon="6.31877">
        <ele>575</ele>
        <time>2016-07-30T07:07:04.000Z</time>
      </trkpt>
      <trkpt lat="46.06808" lon="6.31885">
        <ele>577</ele>
        <time>2016-07-30T07:07:09.000Z</time>
      </trkpt>
      <trkpt lat="46.06813" lon="6.31898">
        <ele>579</ele>
        <time>2016-07-30T07:07:18.000Z</time>
      </trkpt>
      <trkpt lat="46.06821" lon="6.31906">
        <ele>577</ele>
        <time>2016-07-30T07:07:24.000Z</time>
      </trkpt>
      <trkpt lat="46.0683" lon="6.3191">
        <ele>574</ele>
        <time>2016-07-30T07:07:34.000Z</time>
      </trkpt>
      <trkpt lat="46.06838" lon="6.31902">
        <ele>575</ele>
        <time>2016-07-30T07:07:43.000Z</time>
      </trkpt>
      <trkpt lat="46.06846" lon="6.31897">
        <ele>573</ele>
        <time>2016-07-30T07:07:53.000Z</time>
      </trkpt>
      <trkpt lat="46.06855" lon="6.31892">
        <ele>573</ele>
        <time>2016-07-30T07:07:59.000Z</time>
      </trkpt>
      <trkpt lat="46.06864" lon="6.31883">
        <ele>572</ele>
        <time>2016-07-30T07:08:06.000Z</time>
      </trkpt>
      <trkpt lat="46.06874" lon="6.3188">
        <ele>567</ele>
        <time>2016-07-30T07:08:12.000Z</time>
      </trkpt>
      <trkpt lat="46.06883" lon="6.31877">
        <ele>569</ele>
        <time>2016-07-30T07:08:19.000Z</time>
      </trkpt>
      <trkpt lat="46.06894" lon="6.31871">
        <ele>566</ele>
        <time>2016-07-30T07:08:26.000Z</time>
      </trkpt>
      <trkpt lat="46.06901" lon="6.31862">
        <ele>567</ele>
        <time>2016-07-30T07:08:35.000Z</time>
      </trkpt>
      <trkpt lat="46.06911" lon="6.3186">
        <ele>571</ele>
        <time>2016-07-30T07:08:39.000Z</time>
      </trkpt>
      <trkpt lat="46.06921" lon="6.31864">
        <ele>569</ele>
        <time>2016-07-30T07:08:47.000Z</time>
      </trkpt>
      <trkpt lat="46.0693" lon="6.31865">
        <ele>569</ele>
        <time>2016-07-30T07:08:55.000Z</time>
      </trkpt>
      <trkpt lat="46.06936" lon="6.31855">
        <ele>566</ele>
        <time>2016-07-30T07:09:02.000Z</time>
      </trkpt>
      <trkpt lat="46.06938" lon="6.31841">
        <ele>562</ele>
        <time>2016-07-30T07:09:10.000Z</time>
      </trkpt>
      <trkpt lat="46.06941" lon="6.31829">
        <ele>566</ele>
        <time>2016-07-30T07:09:19.000Z</time>
      </trkpt>
      <trkpt lat="46.06944" lon="6.31815">
        <ele>565</ele>
        <time>2016-07-30T07:09:24.000Z</time>
      </trkpt>
      <trkpt lat="46.06949" lon="6.31804">
        <ele>563</ele>
        <time>2016-07-30T07:09:31.000Z</time>
      </trkpt>
      <trkpt lat="46.06955" lon="6.31795">
        <ele>564</ele>
        <time>2016-07-30T07:09:37.000Z</time>
      </trkpt>
      <trkpt lat="46.06957" lon="6.3178">
        <ele>566</ele>
        <time>2016-07-30T07:09:41.000Z</time>
      </trkpt>
      <trkpt lat="46.06965" lon="6.31771">
        <ele>561</ele>
        <time>2016-07-30T07:09:47.000Z</time>
      </trkpt>
      <trkpt lat="46.06971" lon="6.31761">
        <ele>560</ele>
        <time>2016-07-30T07:09:56.000Z</time>
      </trkpt>
      <trkpt lat="46.06979" lon="6.31752">
        <ele>562</ele>
        <time>2016-07-30T07:10:04.000Z</time>
      </trkpt>
      <trkpt lat="46.06987" lon="6.31745">
        <ele>566</ele>
        <time>2016-07-30T07:10:10.000Z</time>
      </trkpt>
      <trkpt lat="46.06994" lon="6.31734">
        <ele>570</ele>
        <time>2016-07-30T07:10:20.000Z</time>
      </trkpt>
      <trkpt lat="46.07003" lon="6.31725">
        <ele>570</ele>
        <time>2016-07-30T07:10:30.000Z</time>
      </trkpt>
      <trkpt lat="46.07013" lon="6.31722">
        <ele>571</ele>
        <time>2016-07-30T07:10:37.000Z</time>
      </trkpt>
      <trkpt lat="46.07021" lon="6.31715">
        <ele>571</ele>
        <time>2016-07-30T07:10:43.000Z</time>
      </trkpt>
      <trkpt lat="46.07026" lon="6.31702">
        <ele>567</ele>
        <time>2016-07-30T07:10:53.000Z</time>
      </trkpt>
      <trkpt lat="46.07024" lon="6.31688">
        <ele>569</ele>
        <time>2016-07-30T07:11:02.000Z</time>
      </trkpt>
      <trkpt lat="46.07029" lon="6.31674">
        <ele>574</ele>
        <time>2016-07-30T07:11:13.000Z</time>
      </trkpt>
      <trkpt lat="46.07033" lon="6.31661">
        <ele>577</ele>
        <time>2016-07-30T07:11:20.000Z</time>
      </trkpt>
      <trkpt lat="46.07037" lon="6.31648">
        <ele>574</ele>
        <time>2016-07-30T07:11:29.000Z</time>
      </trkpt>
      <trkpt lat="46.07042" lon="6.31634">
        <ele>574</ele>
        <time>2016-07-30T07:11:35.000Z</time>
      </trkpt>
      <trkpt lat="46.07048" lon="6.31623">
        <ele>574</ele>
        <time>2016-07-30T07:11:43.000Z</time>
      </trkpt>
      <trkpt lat="46.07053" lon="6.31611">
        <ele>575</ele>
        <time>2016-07-30T07:11:52.000Z</time>
      </trkpt>
      <trkpt lat="46.07059" lon="6.31599">
        <ele>575</ele>
        <time>2016-07-30T07:11:58.000Z</time>
      </trkpt>
      <trkpt lat="46.07066" lon="6.31591">
        <ele>576</ele>
        <time>2016-07-30T07:12:05.000Z</time>
      </trkpt>
      <trkpt lat="46.07072" lon="6.31579">
        <ele>574</ele>
        <time>2016-07-30T07:12:12.000Z</time>
      </trkpt>
      <trkpt lat="46.07079" lon="6.31569">
        <ele>572</ele>
        <time>2016-07-30T07:12:20.000Z</time>
      </trkpt>
      <trkpt lat="46.07086" lon="6.31557">
        <ele>570</ele>
        <time>2016-07-30T07:12:28.000Z</time>
      </trkpt>
      <trkpt lat="46.07091" lon="6.31545">
        <ele>574</ele>
        <time>2016-07-30T07:12:37.000Z</time>
      </trkpt>
      <trkpt lat="46.07097" lon="6.31532">
        <ele>575</ele>
        <time>2016-07-30T07:12:45.000Z</time>
      </trkpt>
      <trkpt lat="46.07106" lon="6.31524">
        <ele>571</ele>
        <time>2016-07-30T07:12:53.000Z</time>
      </trkpt>
      <trkpt lat="46.07113" lon="6.31535">
        <ele>571</ele>
        <time>2016-07-30T07:12:59.000Z</time>
      </trkpt>
      <trkpt lat="46.07119" lon="6.31544">
        <ele>573</ele>
        <time>2016-07-30T07:13:05.000Z</time>
      </trkpt>
      <trkpt lat="46.07127" lon="6.3155">
        <ele>573</ele>
        <time>2016-07-30T07:13:12.000Z</time>
      </trkpt>
      <trkpt lat="46.07136" lon="6.31558">
        <ele>571</ele>
        <time>2016-07-30T07:13:20.000Z</time>
      </trkpt>
      <trkpt lat="46.07143" lon="6.31567">
        <ele>565</ele>
        <time>2016-07-30T07:13:29.000Z</time>
      </trkpt>
      <trkpt lat="46.07153" lon="6.31571">
        <ele>566</ele>
        <time>2016-07-30T07:13:34.000Z</time>
      </trkpt>
      <trkpt lat="46.07161" lon="6.31576">
        <ele>569</ele>
        <time>2016-07-30T07:13:40.000Z</time>
      </trkpt>
      <trkpt lat="46.07169" lon="6.31583">
        <ele>572</ele>
        <time>2016-07-30T07:13:45.000Z</time>
      </trkpt>
      <trkpt lat="46.07177" lon="6.31592">
        <ele>574</ele>
        <time>2016-07-30T07:13:52.000Z</time>
      </trkpt>
      <trkpt lat="46.07185" lon="6.31599">
        <ele>573</ele>
        <time>2016-07-30T07:13:57.000Z</time>
      </trkpt>
      <trkpt lat="46.07194" lon="6.31603">
        <ele>570</ele>
        <time>2016-07-30T07:14:04.000Z</time>
      </trkpt>
      <trkpt lat="46.07202" lon="6.31608">
        <ele>567</ele>
        <time>2016-07-30T07:14:14.000Z</time>
      </trkpt>
      <trkpt lat="46.07212" lon="6.31611">
        <ele>566</ele>
        <time>2016-07-30T07:14:20.000Z</time>
      </trkpt>
      <trkpt lat="46.07222" lon="6.31611">
        <ele>560</ele>
        <time>2016-07-30T07:14:28.000Z</time>
      </trkpt>
      <trkpt lat="46.07233" lon="6.31614">
        <ele>562</ele>
        <time>2016-07-30T07:14:34.000Z</time>
      </trkpt>
      <trkpt lat="46.07241" lon="6.31622">
        <ele>562</ele>
        <time>2016-07-30T07:14:44.000Z</time>
      </trkpt>
      <trkpt lat="46.07251" lon="6.31621">
        <ele>562</ele>
        <time>2016-07-30T07:14:53.000Z</time>
      </trkpt>
      <trkpt lat="46.0726" lon="6.31632">
        <ele>562</ele>
        <time>2016-07-30T07:14:56.000Z</time>
      </trkpt>
      <trkpt lat="46.07269" lon="6.31629">
        <ele>562</ele>
        <time>2016-07-30T07:15:08.000Z</time>
      </trkpt>
      <trkpt lat="46.07279" lon="6.3163">
        <ele>563</ele>
        <time>2016-07-30T07:15:17.000Z</time>
      </trkpt>
      <trkpt lat="46.07288" lon="6.31632">
        <ele>563</ele>
        <time>2016-07-30T07:15:23.000Z</time>
      </trkpt>
      <trkpt lat="46.07298" lon="6.31633">
        <ele>566</ele>
        <time>2016-07-30T07:15:35.000Z</time>
      </trkpt>
      <trkpt lat="46.07309" lon="6.31633">
        <ele>567</ele>
        <time>2016-07-30T07:15:38.000Z</time>
      </trkpt>
      <trkpt lat="46.07318" lon="6.31639">
        <ele>565</ele>
        <time>2016-07-30T07:15:45.000Z</time>
      </trkpt>
      <trkpt lat="46.07324" lon="6.31648">
        <ele>564</ele>
        <time>2016-07-30T07:15:53.000Z</time>
      </trkpt>
      <trkpt lat="46.0733" lon="6.3166">
        <ele>564</ele>
        <time>2016-07-30T07:16:00.000Z</time>
      </trkpt>
      <trkpt lat="46.07338" lon="6.31667">
        <ele>564</ele>
        <time>2016-07-30T07:16:08.000Z</time>
      </trkpt>
      <trkpt lat="46.07348" lon="6.31671">
        <ele>568</ele>
        <time>2016-07-30T07:16:14.000Z</time>
      </trkpt>
      <trkpt lat="46.07357" lon="6.31677">
        <ele>564</ele>
        <time>2016-07-30T07:16:20.000Z</time>
      </trkpt>
      <trkpt lat="46.07367" lon="6.31686">
        <ele>564</ele>
        <time>2016-07-30T07:16:25.000Z</time>
      </trkpt>
      <trkpt lat="46.07375" lon="6.31691">
        <ele>563</ele>
        <time>2016-07-30T07:16:32.000Z</time>
      </trkpt>
      <trkpt lat="46.07385" lon="6.31696">
        <ele>560</ele>
        <time>2016-07-30T07:16:39.000Z</time>
      </trkpt>
      <trkpt lat="46.07395" lon="6.31703">
        <ele>563</ele>
        <time>2016-07-30T07:16:46.000Z</time>
      </trkpt>
      <trkpt lat="46.07405" lon="6.31708">
        <ele>562</ele>
        <time>2016-07-30T07:16:53.000Z</time>
      </trkpt>
      <trkpt lat="46.07414" lon="6.31709">
        <ele>564</ele>
        <time>2016-07-30T07:16:59.000Z</time>
      </trkpt>
      <trkpt lat="46.07421" lon="6.3172">
        <ele>564</ele>
        <time>2016-07-30T07:17:04.000Z</time>
      </trkpt>
      <trkpt lat="46.07427" lon="6.3173">
        <ele>563</ele>
        <time>2016-07-30T07:17:11.000Z</time>
      </trkpt>
      <trkpt lat="46.07433" lon="6.31739">
        <ele>563</ele>
        <time>2016-07-30T07:17:20.000Z</time>
      </trkpt>
      <trkpt lat="46.0744" lon="6.31747">
        <ele>564</ele>
        <time>2016-07-30T07:17:25.000Z</time>
      </trkpt>
      <trkpt lat="46.07447" lon="6.31759">
        <ele>563</ele>
        <time>2016-07-30T07:17:32.000Z</time>
      </trkpt>
      <trkpt lat="46.07455" lon="6.31769">
        <ele>563</ele>
        <time>2016-07-30T07:17:39.000Z</time>
      </trkpt>
      <trkpt lat="46.07465" lon="6.31779">
        <ele>563</ele>
        <time>2016-07-30T07:17:44.000Z</time>
      </trkpt>
      <trkpt lat="46.07468" lon="6.31792">
        <ele>560</ele>
        <time>2016-07-30T07:17:54.000Z</time>
      </trkpt>
      <trkpt lat="46.07475" lon="6.318">
        <ele>557</ele>
        <time>2016-07-30T07:17:59.000Z</time>
      </trkpt>
      <trkpt lat="46.07483" lon="6.31805">
        <ele>558</ele>
        <time>2016-07-30T07:18:06.000Z</time>
      </trkpt>
      <trkpt lat="46.07491" lon="6.31812">
        <ele>558</ele>
        <time>2016-07-30T07:18:12.000Z</time>
      </trkpt>
      <trkpt lat="46.07499" lon="6.3182">
        <ele>557</ele>
        <time>2016-07-30T07:18:20.000Z</time>
      </trkpt>
      <trkpt lat="46.07506" lon="6.31828">
        <ele>552</ele>
        <time>2016-07-30T07:18:26.000Z</time>
      </trkpt>
      <trkpt lat="46.07514" lon="6.31838">
        <ele>550</ele>
        <time>2016-07-30T07:18:33.000Z</time>
      </trkpt>
      <trkpt lat="46.07523" lon="6.31845">
        <ele>554</ele>
        <time>2016-07-30T07:18:37.000Z</time>
      </trkpt>
      <trkpt lat="46.07531" lon="6.31853">
        <ele>549</ele>
        <time>2016-07-30T07:18:44.000Z</time>
      </trkpt>
      <trkpt lat="46.07541" lon="6.31859">
        <ele>550</ele>
        <time>2016-07-30T07:18:52.000Z</time>
      </trkpt>
      <trkpt lat="46.07551" lon="6.31865">
        <ele>546</ele>
        <time>2016-07-30T07:19:01.000Z</time>
      </trkpt>
      <trkpt lat="46.07556" lon="6.31876">
        <ele>542</ele>
        <time>2016-07-30T07:19:10.000Z</time>
      </trkpt>
      <trkpt lat="46.07556" lon="6.31889">
        <ele>538</ele>
        <time>2016-07-30T07:19:19.000Z</time>
      </trkpt>
      <trkpt lat="46.07554" lon="6.31904">
        <ele>537</ele>
        <time>2016-07-30T07:19:26.000Z</time>
      </trkpt>
      <trkpt lat="46.07552" lon="6.31917">
        <ele>533</ele>
        <time>2016-07-30T07:19:32.000Z</time>
      </trkpt>
      <trkpt lat="46.07547" lon="6.31927">
        <ele>534</ele>
        <time>2016-07-30T07:19:41.000Z</time>
      </trkpt>
      <trkpt lat="46.07539" lon="6.31936">
        <ele>533</ele>
        <time>2016-07-30T07:19:47.000Z</time>
      </trkpt>
      <trkpt lat="46.07532" lon="6.31944">
        <ele>532</ele>
        <time>2016-07-30T07:19:55.000Z</time>
      </trkpt>
      <trkpt lat="46.07525" lon="6.31953">
        <ele>530</ele>
        <time>2016-07-30T07:20:02.000Z</time>
      </trkpt>
      <trkpt lat="46.07517" lon="6.31959">
        <ele>529</ele>
        <time>2016-07-30T07:20:09.000Z</time>
      </trkpt>
      <trkpt lat="46.07509" lon="6.31969">
        <ele>531</ele>
        <time>2016-07-30T07:20:16.000Z</time>
      </trkpt>
      <trkpt lat="46.07502" lon="6.31981">
        <ele>536</ele>
        <time>2016-07-30T07:20:20.000Z</time>
      </trkpt>
      <trkpt lat="46.07495" lon="6.3199">
        <ele>533</ele>
        <time>2016-07-30T07:20:29.000Z</time>
      </trkpt>
      <trkpt lat="46.07486" lon="6.31993">
        <ele>531</ele>
        <time>2016-07-30T07:20:36.000Z</time>
      </trkpt>
      <trkpt lat="46.07476" lon="6.31998">
        <ele>531</ele>
        <time>2016-07-30T07:20:41.000Z</time>
      </trkpt>
      <trkpt lat="46.07473" lon="6.32011">
        <ele>540</ele>
        <time>2016-07-30T07:20:47.000Z</time>
      </trkpt>
      <trkpt lat="46.07467" lon="6.32021">
        <ele>541</ele>
        <time>2016-07-30T07:20:57.000Z</time>
      </trkpt>
      <trkpt lat="46.0746" lon="6.3203">
        <ele>539</ele>
        <time>2016-07-30T07:21:03.000Z</time>
      </trkpt>
      <trkpt lat="46.07455" lon="6.32041">
        <ele>537</ele>
        <time>2016-07-30T07:21:10.000Z</time>
      </trkpt>
      <trkpt lat="46.0745" lon="6.32054">
        <ele>537</ele>
        <time>2016-07-30T07:21:16.000Z</time>
      </trkpt>
      <trkpt lat="46.07446" lon="6.32067">
        <ele>535</ele>
        <time>2016-07-30T07:21:23.000Z</time>
      </trkpt>
      <trkpt lat="46.07444" lon="6.3208">
        <ele>536</ele>
        <time>2016-07-30T07:21:30.000Z</time>
      </trkpt>
      <trkpt lat="46.07435" lon="6.32088">
        <ele>531</ele>
        <time>2016-07-30T07:21:40.000Z</time>
      </trkpt>
      <trkpt lat="46.0743" lon="6.32098">
        <ele>532</ele>
        <time>2016-07-30T07:21:46.000Z</time>
      </trkpt>
      <trkpt lat="46.07422" lon="6.32107">
        <ele>533</ele>
        <time>2016-07-30T07:21:53.000Z</time>
      </trkpt>
      <trkpt lat="46.07416" lon="6.32118">
        <ele>535</ele>
        <time>2016-07-30T07:22:01.000Z</time>
      </trkpt>
      <trkpt lat="46.07411" lon="6.32129">
        <ele>534</ele>
        <time>2016-07-30T07:22:05.000Z</time>
      </trkpt>
      <trkpt lat="46.07404" lon="6.32138">
        <ele>540</ele>
        <time>2016-07-30T07:22:11.000Z</time>
      </trkpt>
      <trkpt lat="46.07396" lon="6.32146">
        <ele>539</ele>
        <time>2016-07-30T07:22:18.000Z</time>
      </trkpt>
      <trkpt lat="46.07387" lon="6.32151">
        <ele>537</ele>
        <time>2016-07-30T07:22:25.000Z</time>
      </trkpt>
      <trkpt lat="46.07379" lon="6.32159">
        <ele>535</ele>
        <time>2016-07-30T07:22:31.000Z</time>
      </trkpt>
      <trkpt lat="46.0737" lon="6.32166">
        <ele>533</ele>
        <time>2016-07-30T07:22:38.000Z</time>
      </trkpt>
      <trkpt lat="46.07362" lon="6.32172">
        <ele>530</ele>
        <time>2016-07-30T07:22:45.000Z</time>
      </trkpt>
      <trkpt lat="46.0735" lon="6.32175">
        <ele>528</ele>
        <time>2016-07-30T07:22:52.000Z</time>
      </trkpt>
      <trkpt lat="46.07341" lon="6.32183">
        <ele>531</ele>
        <time>2016-07-30T07:22:57.000Z</time>
      </trkpt>
      <trkpt lat="46.07334" lon="6.32195">
        <ele>530</ele>
        <time>2016-07-30T07:23:04.000Z</time>
      </trkpt>
      <trkpt lat="46.07333" lon="6.32209">
        <ele>527</ele>
        <time>2016-07-30T07:23:13.000Z</time>
      </trkpt>
      <trkpt lat="46.07339" lon="6.32219">
        <ele>527</ele>
        <time>2016-07-30T07:23:18.000Z</time>
      </trkpt>
      <trkpt lat="46.07346" lon="6.32231">
        <ele>527</ele>
        <time>2016-07-30T07:23:23.000Z</time>
      </trkpt>
      <trkpt lat="46.07353" lon="6.3224">
        <ele>529</ele>
        <time>2016-07-30T07:23:30.000Z</time>
      </trkpt>
      <trkpt lat="46.07351" lon="6.32253">
        <ele>529</ele>
        <time>2016-07-30T07:23:37.000Z</time>
      </trkpt>
      <trkpt lat="46.07342" lon="6.32266">
        <ele>531</ele>
        <time>2016-07-30T07:23:42.000Z</time>
      </trkpt>
      <trkpt lat="46.07346" lon="6.32279">
        <ele>528</ele>
        <time>2016-07-30T07:23:47.000Z</time>
      </trkpt>
      <trkpt lat="46.07336" lon="6.32288">
        <ele>525</ele>
        <time>2016-07-30T07:23:56.000Z</time>
      </trkpt>
      <trkpt lat="46.0733" lon="6.323">
        <ele>525</ele>
        <time>2016-07-30T07:24:03.000Z</time>
      </trkpt>
      <trkpt lat="46.07327" lon="6.32315">
        <ele>523</ele>
        <time>2016-07-30T07:24:10.000Z</time>
      </trkpt>
      <trkpt lat="46.07325" lon="6.3233">
        <ele>522</ele>
        <time>2016-07-30T07:24:16.000Z</time>
      </trkpt>
      <trkpt lat="46.07325" lon="6.32344">
        <ele>526</ele>
        <time>2016-07-30T07:24:23.000Z</time>
      </trkpt>
      <trkpt lat="46.07324" lon="6.32359">
        <ele>527</ele>
        <time>2016-07-30T07:24:31.000Z</time>
      </trkpt>
      <trkpt lat="46.07326" lon="6.32372">
        <ele>527</ele>
        <time>2016-07-30T07:24:37.000Z</time>
      </trkpt>
      <trkpt lat="46.0733" lon="6.32385">
        <ele>526</ele>
        <time>2016-07-30T07:24:44.000Z</time>
      </trkpt>
      <trkpt lat="46.07332" lon="6.32398">
        <ele>526</ele>
        <time>2016-07-30T07:24:52.000Z</time>
      </trkpt>
      <trkpt lat="46.07335" lon="6.32411">
        <ele>520</ele>
        <time>2016-07-30T07:25:00.000Z</time>
      </trkpt>
      <trkpt lat="46.07332" lon="6.32427">
        <ele>523</ele>
        <time>2016-07-30T07:25:09.000Z</time>
      </trkpt>
      <trkpt lat="46.07332" lon="6.32441">
        <ele>525</ele>
        <time>2016-07-30T07:25:12.000Z</time>
      </trkpt>
      <trkpt lat="46.07328" lon="6.32453">
        <ele>525</ele>
        <time>2016-07-30T07:25:20.000Z</time>
      </trkpt>
      <trkpt lat="46.07329" lon="6.32468">
        <ele>522</ele>
        <time>2016-07-30T07:25:25.000Z</time>
      </trkpt>
      <trkpt lat="46.07325" lon="6.32481">
        <ele>530</ele>
        <time>2016-07-30T07:25:31.000Z</time>
      </trkpt>
      <trkpt lat="46.07324" lon="6.32495">
        <ele>531</ele>
        <time>2016-07-30T07:25:37.000Z</time>
      </trkpt>
      <trkpt lat="46.07317" lon="6.32504">
        <ele>527</ele>
        <time>2016-07-30T07:25:44.000Z</time>
      </trkpt>
      <trkpt lat="46.07318" lon="6.32517">
        <ele>527</ele>
        <time>2016-07-30T07:25:50.000Z</time>
      </trkpt>
      <trkpt lat="46.07319" lon="6.3253">
        <ele>526</ele>
        <time>2016-07-30T07:25:56.000Z</time>
      </trkpt>
      <trkpt lat="46.07321" lon="6.32543">
        <ele>529</ele>
        <time>2016-07-30T07:26:01.000Z</time>
      </trkpt>
      <trkpt lat="46.07323" lon="6.32558">
        <ele>530</ele>
        <time>2016-07-30T07:26:07.000Z</time>
      </trkpt>
      <trkpt lat="46.07326" lon="6.32572">
        <ele>527</ele>
        <time>2016-07-30T07:26:16.000Z</time>
      </trkpt>
      <trkpt lat="46.07332" lon="6.32583">
        <ele>527</ele>
        <time>2016-07-30T07:26:21.000Z</time>
      </trkpt>
      <trkpt lat="46.07332" lon="6.32597">
        <ele>527</ele>
        <time>2016-07-30T07:26:29.000Z</time>
      </trkpt>
      <trkpt lat="46.07334" lon="6.32611">
        <ele>524</ele>
        <time>2016-07-30T07:26:37.000Z</time>
      </trkpt>
      <trkpt lat="46.07334" lon="6.32626">
        <ele>528</ele>
        <time>2016-07-30T07:26:45.000Z</time>
      </trkpt>
      <trkpt lat="46.07339" lon="6.32638">
        <ele>526</ele>
        <time>2016-07-30T07:26:50.000Z</time>
      </trkpt>
      <trkpt lat="46.07341" lon="6.32651">
        <ele>527</ele>
        <time>2016-07-30T07:26:56.000Z</time>
      </trkpt>
      <trkpt lat="46.07333" lon="6.32659">
        <ele>527</ele>
        <time>2016-07-30T07:27:03.000Z</time>
      </trkpt>
      <trkpt lat="46.07326" lon="6.32668">
        <ele>527</ele>
        <time>2016-07-30T07:27:09.000Z</time>
      </trkpt>
      <trkpt lat="46.07319" lon="6.32678">
        <ele>527</ele>
        <time>2016-07-30T07:27:15.000Z</time>
      </trkpt>
      <trkpt lat="46.0731" lon="6.32684">
        <ele>524</ele>
        <time>2016-07-30T07:27:21.000Z</time>
      </trkpt>
      <trkpt lat="46.07303" lon="6.32693">
        <ele>523</ele>
        <time>2016-07-30T07:27:28.000Z</time>
      </trkpt>
      <trkpt lat="46.07295" lon="6.32703">
        <ele>526</ele>
        <time>2016-07-30T07:27:35.000Z</time>
      </trkpt>
      <trkpt lat="46.07286" lon="6.32704">
        <ele>517</ele>
        <time>2016-07-30T07:27:40.000Z</time>
      </trkpt>
      <trkpt lat="46.07282" lon="6.32716">
        <ele>514</ele>
        <time>2016-07-30T07:27:49.000Z</time>
      </trkpt>
      <trkpt lat="46.07277" lon="6.3273">
        <ele>508</ele>
        <time>2016-07-30T07:27:57.000Z</time>
      </trkpt>
      <trkpt lat="46.07274" lon="6.32744">
        <ele>508</ele>
        <time>2016-07-30T07:28:04.000Z</time>
      </trkpt>
      <trkpt lat="46.07278" lon="6.32757">
        <ele>510</ele>
        <time>2016-07-30T07:28:09.000Z</time>
      </trkpt>
      <trkpt lat="46.07283" lon="6.3277">
        <ele>510</ele>
        <time>2016-07-30T07:28:15.000Z</time>
      </trkpt>
      <trkpt lat="46.07291" lon="6.32781">
        <ele>511</ele>
        <time>2016-07-30T07:28:23.000Z</time>
      </trkpt>
      <trkpt lat="46.073" lon="6.3279">
        <ele>512</ele>
        <time>2016-07-30T07:28:29.000Z</time>
      </trkpt>
      <trkpt lat="46.07306" lon="6.32801">
        <ele>512</ele>
        <time>2016-07-30T07:28:37.000Z</time>
      </trkpt>
      <trkpt lat="46.07315" lon="6.32812">
        <ele>513</ele>
        <time>2016-07-30T07:28:45.000Z</time>
      </trkpt>
      <trkpt lat="46.07321" lon="6.32821">
        <ele>512</ele>
        <time>2016-07-30T07:28:53.000Z</time>
      </trkpt>
      <trkpt lat="46.07327" lon="6.3283">
        <ele>510</ele>
        <time>2016-07-30T07:28:59.000Z</time>
      </trkpt>
      <trkpt lat="46.07336" lon="6.32839">
        <ele>513</ele>
        <time>2016-07-30T07:29:07.000Z</time>
      </trkpt>
      <trkpt lat="46.07345" lon="6.32847">
        <ele>516</ele>
        <time>2016-07-30T07:29:12.000Z</time>
      </trkpt>
      <trkpt lat="46.07352" lon="6.32856">
        <ele>514</ele>
        <time>2016-07-30T07:29:20.000Z</time>
      </trkpt>
      <trkpt lat="46.07359" lon="6.32868">
        <ele>514</ele>
        <time>2016-07-30T07:29:27.000Z</time>
      </trkpt>
      <trkpt lat="46.07365" lon="6.32879">
        <ele>511</ele>
        <time>2016-07-30T07:29:36.000Z</time>
      </trkpt>
      <trkpt lat="46.07374" lon="6.32886">
        <ele>511</ele>
        <time>2016-07-30T07:29:40.000Z</time>
      </trkpt>
      <trkpt lat="46.07382" lon="6.32893">
        <ele>509</ele>
        <time>2016-07-30T07:29:48.000Z</time>
      </trkpt>
      <trkpt lat="46.07391" lon="6.32899">
        <ele>510</ele>
        <time>2016-07-30T07:29:53.000Z</time>
      </trkpt>
      <trkpt lat="46.07399" lon="6.32906">
        <ele>513</ele>
        <time>2016-07-30T07:29:58.000Z</time>
      </trkpt>
      <trkpt lat="46.07405" lon="6.32917">
        <ele>512</ele>
        <time>2016-07-30T07:30:04.000Z</time>
      </trkpt>
      <trkpt lat="46.07413" lon="6.32929">
        <ele>515</ele>
        <time>2016-07-30T07:30:11.000Z</time>
      </trkpt>
      <trkpt lat="46.0742" lon="6.32939">
        <ele>518</ele>
        <time>2016-07-30T07:30:20.000Z</time>
      </trkpt>
      <trkpt lat="46.07427" lon="6.32947">
        <ele>520</ele>
        <time>2016-07-30T07:30:25.000Z</time>
      </trkpt>
      <trkpt lat="46.07437" lon="6.32953">
        <ele>523</ele>
        <time>2016-07-30T07:30:32.000Z</time>
      </trkpt>
      <trkpt lat="46.07446" lon="6.32959">
        <ele>523</ele>
        <time>2016-07-30T07:30:39.000Z</time>
      </trkpt>
      <trkpt lat="46.07456" lon="6.32964">
        <ele>517</ele>
        <time>2016-07-30T07:30:49.000Z</time>
      </trkpt>
      <trkpt lat="46.07463" lon="6.32973">
        <ele>513</ele>
        <time>2016-07-30T07:30:56.000Z</time>
      </trkpt>
      <trkpt lat="46.07472" lon="6.32981">
        <ele>514</ele>
        <time>2016-07-30T07:31:04.000Z</time>
      </trkpt>
      <trkpt lat="46.0748" lon="6.32988">
        <ele>514</ele>
        <time>2016-07-30T07:31:09.000Z</time>
      </trkpt>
      <trkpt lat="46.07488" lon="6.32997">
        <ele>512</ele>
        <time>2016-07-30T07:31:18.000Z</time>
      </trkpt>
      <trkpt lat="46.07496" lon="6.33005">
        <ele>515</ele>
        <time>2016-07-30T07:31:22.000Z</time>
      </trkpt>
      <trkpt lat="46.07505" lon="6.33011">
        <ele>511</ele>
        <time>2016-07-30T07:31:29.000Z</time>
      </trkpt>
      <trkpt lat="46.07513" lon="6.33019">
        <ele>512</ele>
        <time>2016-07-30T07:31:37.000Z</time>
      </trkpt>
      <trkpt lat="46.07523" lon="6.33026">
        <ele>514</ele>
        <time>2016-07-30T07:31:43.000Z</time>
      </trkpt>
      <trkpt lat="46.07531" lon="6.33034">
        <ele>511</ele>
        <time>2016-07-30T07:31:51.000Z</time>
      </trkpt>
      <trkpt lat="46.07539" lon="6.33041">
        <ele>513</ele>
        <time>2016-07-30T07:31:56.000Z</time>
      </trkpt>
      <trkpt lat="46.07548" lon="6.33051">
        <ele>512</ele>
        <time>2016-07-30T07:32:06.000Z</time>
      </trkpt>
      <trkpt lat="46.07557" lon="6.33057">
        <ele>513</ele>
        <time>2016-07-30T07:32:12.000Z</time>
      </trkpt>
      <trkpt lat="46.07561" lon="6.33071">
        <ele>511</ele>
        <time>2016-07-30T07:32:19.000Z</time>
      </trkpt>
      <trkpt lat="46.07567" lon="6.33082">
        <ele>509</ele>
        <time>2016-07-30T07:32:26.000Z</time>
      </trkpt>
      <trkpt lat="46.07576" lon="6.3309">
        <ele>511</ele>
        <time>2016-07-30T07:32:33.000Z</time>
      </trkpt>
      <trkpt lat="46.07583" lon="6.33098">
        <ele>510</ele>
        <time>2016-07-30T07:32:39.000Z</time>
      </trkpt>
      <trkpt lat="46.07591" lon="6.33105">
        <ele>511</ele>
        <time>2016-07-30T07:32:47.000Z</time>
      </trkpt>
      <trkpt lat="46.076" lon="6.33111">
        <ele>511</ele>
        <time>2016-07-30T07:32:53.000Z</time>
      </trkpt>
      <trkpt lat="46.07607" lon="6.33124">
        <ele>512</ele>
        <time>2016-07-30T07:33:03.000Z</time>
      </trkpt>
      <trkpt lat="46.07617" lon="6.3313">
        <ele>511</ele>
        <time>2016-07-30T07:33:08.000Z</time>
      </trkpt>
      <trkpt lat="46.07626" lon="6.33135">
        <ele>505</ele>
        <time>2016-07-30T07:33:18.000Z</time>
      </trkpt>
      <trkpt lat="46.07636" lon="6.33141">
        <ele>505</ele>
        <time>2016-07-30T07:33:23.000Z</time>
      </trkpt>
      <trkpt lat="46.07644" lon="6.33149">
        <ele>504</ele>
        <time>2016-07-30T07:33:30.000Z</time>
      </trkpt>
      <trkpt lat="46.07651" lon="6.33156">
        <ele>505</ele>
        <time>2016-07-30T07:33:36.000Z</time>
      </trkpt>
      <trkpt lat="46.07661" lon="6.33163">
        <ele>507</ele>
        <time>2016-07-30T07:33:43.000Z</time>
      </trkpt>
      <trkpt lat="46.07671" lon="6.3317">
        <ele>508</ele>
        <time>2016-07-30T07:33:48.000Z</time>
      </trkpt>
      <trkpt lat="46.07678" lon="6.33178">
        <ele>504</ele>
        <time>2016-07-30T07:33:56.000Z</time>
      </trkpt>
      <trkpt lat="46.07687" lon="6.33184">
        <ele>505</ele>
        <time>2016-07-30T07:34:02.000Z</time>
      </trkpt>
      <trkpt lat="46.07695" lon="6.33191">
        <ele>506</ele>
        <time>2016-07-30T07:34:08.000Z</time>
      </trkpt>
      <trkpt lat="46.07703" lon="6.33199">
        <ele>504</ele>
        <time>2016-07-30T07:34:16.000Z</time>
      </trkpt>
      <trkpt lat="46.0771" lon="6.33209">
        <ele>505</ele>
        <time>2016-07-30T07:34:23.000Z</time>
      </trkpt>
      <trkpt lat="46.07718" lon="6.33218">
        <ele>503</ele>
        <time>2016-07-30T07:34:30.000Z</time>
      </trkpt>
      <trkpt lat="46.07725" lon="6.33227">
        <ele>501</ele>
        <time>2016-07-30T07:34:37.000Z</time>
      </trkpt>
      <trkpt lat="46.07731" lon="6.33238">
        <ele>501</ele>
        <time>2016-07-30T07:34:43.000Z</time>
      </trkpt>
      <trkpt lat="46.07724" lon="6.33248">
        <ele>498</ele>
        <time>2016-07-30T07:34:51.000Z</time>
      </trkpt>
      <trkpt lat="46.07726" lon="6.33262">
        <ele>494</ele>
        <time>2016-07-30T07:34:58.000Z</time>
      </trkpt>
      <trkpt lat="46.07719" lon="6.33271">
        <ele>493</ele>
        <time>2016-07-30T07:35:05.000Z</time>
      </trkpt>
      <trkpt lat="46.07718" lon="6.33286">
        <ele>493</ele>
        <time>2016-07-30T07:35:11.000Z</time>
      </trkpt>
      <trkpt lat="46.07715" lon="6.33299">
        <ele>492</ele>
        <time>2016-07-30T07:35:18.000Z</time>
      </trkpt>
      <trkpt lat="46.07711" lon="6.33312">
        <ele>497</ele>
        <time>2016-07-30T07:35:24.000Z</time>
      </trkpt>
      <trkpt lat="46.07711" lon="6.33326">
        <ele>500</ele>
        <time>2016-07-30T07:35:30.000Z</time>
      </trkpt>
      <trkpt lat="46.07707" lon="6.33338">
        <ele>502</ele>
        <time>2016-07-30T07:35:37.000Z</time>
      </trkpt>
      <trkpt lat="46.077" lon="6.33348">
        <ele>495</ele>
        <time>2016-07-30T07:35:43.000Z</time>
      </trkpt>
      <trkpt lat="46.07697" lon="6.33361">
        <ele>501</ele>
        <time>2016-07-30T07:35:50.000Z</time>
      </trkpt>
      <trkpt lat="46.07695" lon="6.33375">
        <ele>503</ele>
        <time>2016-07-30T07:35:56.000Z</time>
      </trkpt>
      <trkpt lat="46.07692" lon="6.33388">
        <ele>502</ele>
        <time>2016-07-30T07:36:03.000Z</time>
      </trkpt>
      <trkpt lat="46.07687" lon="6.33399">
        <ele>503</ele>
        <time>2016-07-30T07:36:09.000Z</time>
      </trkpt>
      <trkpt lat="46.07682" lon="6.33412">
        <ele>500</ele>
        <time>2016-07-30T07:36:17.000Z</time>
      </trkpt>
      <trkpt lat="46.07681" lon="6.33426">
        <ele>505</ele>
        <time>2016-07-30T07:36:23.000Z</time>
      </trkpt>
      <trkpt lat="46.07679" lon="6.33443">
        <ele>502</ele>
        <time>2016-07-30T07:36:30.000Z</time>
      </trkpt>
      <trkpt lat="46.07671" lon="6.33449">
        <ele>499</ele>
        <time>2016-07-30T07:36:35.000Z</time>
      </trkpt>
      <trkpt lat="46.07668" lon="6.33462">
        <ele>502</ele>
        <time>2016-07-30T07:36:42.000Z</time>
      </trkpt>
      <trkpt lat="46.07666" lon="6.33476">
        <ele>510</ele>
        <time>2016-07-30T07:36:49.000Z</time>
      </trkpt>
      <trkpt lat="46.07663" lon="6.3349">
        <ele>508</ele>
        <time>2016-07-30T07:36:56.000Z</time>
      </trkpt>
      <trkpt lat="46.07657" lon="6.33502">
        <ele>504</ele>
        <time>2016-07-30T07:37:03.000Z</time>
      </trkpt>
      <trkpt lat="46.07652" lon="6.33514">
        <ele>501</ele>
        <time>2016-07-30T07:37:10.000Z</time>
      </trkpt>
      <trkpt lat="46.07649" lon="6.33526">
        <ele>503</ele>
        <time>2016-07-30T07:37:16.000Z</time>
      </trkpt>
      <trkpt lat="46.07647" lon="6.33539">
        <ele>500</ele>
        <time>2016-07-30T07:37:25.000Z</time>
      </trkpt>
      <trkpt lat="46.07643" lon="6.33552">
        <ele>506</ele>
        <time>2016-07-30T07:37:32.000Z</time>
      </trkpt>
      <trkpt lat="46.07638" lon="6.33565">
        <ele>502</ele>
        <time>2016-07-30T07:37:38.000Z</time>
      </trkpt>
      <trkpt lat="46.07632" lon="6.33575">
        <ele>500</ele>
        <time>2016-07-30T07:37:46.000Z</time>
      </trkpt>
      <trkpt lat="46.07626" lon="6.33586">
        <ele>498</ele>
        <time>2016-07-30T07:37:53.000Z</time>
      </trkpt>
      <trkpt lat="46.07625" lon="6.336">
        <ele>503</ele>
        <time>2016-07-30T07:38:00.000Z</time>
      </trkpt>
      <trkpt lat="46.07624" lon="6.33613">
        <ele>504</ele>
        <time>2016-07-30T07:38:05.000Z</time>
      </trkpt>
      <trkpt lat="46.07626" lon="6.33626">
        <ele>505</ele>
        <time>2016-07-30T07:38:10.000Z</time>
      </trkpt>
      <trkpt lat="46.07631" lon="6.33638">
        <ele>504</ele>
        <time>2016-07-30T07:38:15.000Z</time>
      </trkpt>
      <trkpt lat="46.07636" lon="6.33651">
        <ele>506</ele>
        <time>2016-07-30T07:38:21.000Z</time>
      </trkpt>
      <trkpt lat="46.0764" lon="6.33663">
        <ele>505</ele>
        <time>2016-07-30T07:38:28.000Z</time>
      </trkpt>
      <trkpt lat="46.07643" lon="6.33675">
        <ele>506</ele>
        <time>2016-07-30T07:38:34.000Z</time>
      </trkpt>
      <trkpt lat="46.07649" lon="6.33685">
        <ele>504</ele>
        <time>2016-07-30T07:38:41.000Z</time>
      </trkpt>
      <trkpt lat="46.07657" lon="6.33695">
        <ele>503</ele>
        <time>2016-07-30T07:38:48.000Z</time>
      </trkpt>
      <trkpt lat="46.07661" lon="6.33708">
        <ele>506</ele>
        <time>2016-07-30T07:38:55.000Z</time>
      </trkpt>
      <trkpt lat="46.07666" lon="6.33719">
        <ele>508</ele>
        <time>2016-07-30T07:39:00.000Z</time>
      </trkpt>
      <trkpt lat="46.07673" lon="6.33729">
        <ele>506</ele>
        <time>2016-07-30T07:39:07.000Z</time>
      </trkpt>
      <trkpt lat="46.07678" lon="6.3374">
        <ele>503</ele>
        <time>2016-07-30T07:39:13.000Z</time>
      </trkpt>
      <trkpt lat="46.07685" lon="6.33749">
        <ele>504</ele>
        <time>2016-07-30T07:39:19.000Z</time>
      </trkpt>
      <trkpt lat="46.0769" lon="6.33761">
        <ele>503</ele>
        <time>2016-07-30T07:39:26.000Z</time>
      </trkpt>
      <trkpt lat="46.07697" lon="6.33772">
        <ele>503</ele>
        <time>2016-07-30T07:39:33.000Z</time>
      </trkpt>
      <trkpt lat="46.07704" lon="6.33781">
        <ele>506</ele>
        <time>2016-07-30T07:39:39.000Z</time>
      </trkpt>
      <trkpt lat="46.07711" lon="6.33789">
        <ele>508</ele>
        <time>2016-07-30T07:39:46.000Z</time>
      </trkpt>
      <trkpt lat="46.07719" lon="6.33798">
        <ele>508</ele>
        <time>2016-07-30T07:39:53.000Z</time>
      </trkpt>
      <trkpt lat="46.07726" lon="6.33808">
        <ele>504</ele>
        <time>2016-07-30T07:40:01.000Z</time>
      </trkpt>
      <trkpt lat="46.07733" lon="6.33817">
        <ele>501</ele>
        <time>2016-07-30T07:40:10.000Z</time>
      </trkpt>
      <trkpt lat="46.0774" lon="6.33827">
        <ele>503</ele>
        <time>2016-07-30T07:40:17.000Z</time>
      </trkpt>
      <trkpt lat="46.07748" lon="6.33836">
        <ele>503</ele>
        <time>2016-07-30T07:40:23.000Z</time>
      </trkpt>
      <trkpt lat="46.07756" lon="6.33846">
        <ele>506</ele>
        <time>2016-07-30T07:40:29.000Z</time>
      </trkpt>
      <trkpt lat="46.07763" lon="6.33855">
        <ele>510</ele>
        <time>2016-07-30T07:40:35.000Z</time>
      </trkpt>
      <trkpt lat="46.07769" lon="6.33866">
        <ele>502</ele>
        <time>2016-07-30T07:40:44.000Z</time>
      </trkpt>
      <trkpt lat="46.07777" lon="6.33877">
        <ele>502</ele>
        <time>2016-07-30T07:40:50.000Z</time>
      </trkpt>
      <trkpt lat="46.07785" lon="6.33885">
        <ele>503</ele>
        <time>2016-07-30T07:40:58.000Z</time>
      </trkpt>
      <trkpt lat="46.07792" lon="6.33895">
        <ele>501</ele>
        <time>2016-07-30T07:41:05.000Z</time>
      </trkpt>
      <trkpt lat="46.078" lon="6.33905">
        <ele>500</ele>
        <time>2016-07-30T07:41:13.000Z</time>
      </trkpt>
      <trkpt lat="46.07807" lon="6.33913">
        <ele>502</ele>
        <time>2016-07-30T07:41:20.000Z</time>
      </trkpt>
      <trkpt lat="46.07816" lon="6.33919">
        <ele>504</ele>
        <time>2016-07-30T07:41:27.000Z</time>
      </trkpt>
      <trkpt lat="46.07825" lon="6.33923">
        <ele>508</ele>
        <time>2016-07-30T07:41:31.000Z</time>
      </trkpt>
      <trkpt lat="46.07833" lon="6.33931">
        <ele>506</ele>
        <time>2016-07-30T07:41:38.000Z</time>
      </trkpt>
      <trkpt lat="46.07841" lon="6.33937">
        <ele>502</ele>
        <time>2016-07-30T07:41:47.000Z</time>
      </trkpt>
      <trkpt lat="46.0785" lon="6.33944">
        <ele>504</ele>
        <time>2016-07-30T07:41:54.000Z</time>
      </trkpt>
      <trkpt lat="46.07859" lon="6.33951">
        <ele>508</ele>
        <time>2016-07-30T07:42:00.000Z</time>
      </trkpt>
      <trkpt lat="46.07868" lon="6.33952">
        <ele>507</ele>
        <time>2016-07-30T07:42:05.000Z</time>
      </trkpt>
      <trkpt lat="46.07877" lon="6.33952">
        <ele>505</ele>
        <time>2016-07-30T07:42:12.000Z</time>
      </trkpt>
      <trkpt lat="46.07887" lon="6.33954">
        <ele>507</ele>
        <time>2016-07-30T07:42:17.000Z</time>
      </trkpt>
      <trkpt lat="46.07897" lon="6.33955">
        <ele>504</ele>
        <time>2016-07-30T07:42:25.000Z</time>
      </trkpt>
      <trkpt lat="46.07906" lon="6.3396">
        <ele>499</ele>
        <time>2016-07-30T07:42:32.000Z</time>
      </trkpt>
      <trkpt lat="46.07915" lon="6.3396">
        <ele>500</ele>
        <time>2016-07-30T07:42:39.000Z</time>
      </trkpt>
      <trkpt lat="46.07924" lon="6.33965">
        <ele>502</ele>
        <time>2016-07-30T07:42:47.000Z</time>
      </trkpt>
      <trkpt lat="46.07933" lon="6.33966">
        <ele>503</ele>
        <time>2016-07-30T07:42:54.000Z</time>
      </trkpt>
      <trkpt lat="46.07942" lon="6.33969">
        <ele>506</ele>
        <time>2016-07-30T07:42:59.000Z</time>
      </trkpt>
      <trkpt lat="46.0795" lon="6.33976">
        <ele>507</ele>
        <time>2016-07-30T07:43:05.000Z</time>
      </trkpt>
      <trkpt lat="46.07957" lon="6.33986">
        <ele>500</ele>
        <time>2016-07-30T07:43:14.000Z</time>
      </trkpt>
      <trkpt lat="46.07966" lon="6.33997">
        <ele>502</ele>
        <time>2016-07-30T07:43:21.000Z</time>
      </trkpt>
      <trkpt lat="46.07974" lon="6.34003">
        <ele>505</ele>
        <time>2016-07-30T07:43:25.000Z</time>
      </trkpt>
      <trkpt lat="46.07984" lon="6.34005">
        <ele>504</ele>
        <time>2016-07-30T07:43:34.000Z</time>
      </trkpt>
      <trkpt lat="46.07991" lon="6.33995">
        <ele>503</ele>
        <time>2016-07-30T07:43:42.000Z</time>
      </trkpt>
      <trkpt lat="46.07998" lon="6.33985">
        <ele>500</ele>
        <time>2016-07-30T07:43:48.000Z</time>
      </trkpt>
      <trkpt lat="46.08003" lon="6.33975">
        <ele>495</ele>
        <time>2016-07-30T07:43:56.000Z</time>
      </trkpt>
      <trkpt lat="46.08014" lon="6.33969">
        <ele>493</ele>
        <time>2016-07-30T07:44:01.000Z</time>
      </trkpt>
      <trkpt lat="46.0802" lon="6.33959">
        <ele>492</ele>
        <time>2016-07-30T07:44:09.000Z</time>
      </trkpt>
      <trkpt lat="46.0803" lon="6.33955">
        <ele>492</ele>
        <time>2016-07-30T07:44:16.000Z</time>
      </trkpt>
      <trkpt lat="46.08037" lon="6.33947">
        <ele>491</ele>
        <time>2016-07-30T07:44:21.000Z</time>
      </trkpt>
      <trkpt lat="46.08046" lon="6.33945">
        <ele>495</ele>
        <time>2016-07-30T07:44:26.000Z</time>
      </trkpt>
      <trkpt lat="46.08056" lon="6.33946">
        <ele>497</ele>
        <time>2016-07-30T07:44:31.000Z</time>
      </trkpt>
      <trkpt lat="46.08065" lon="6.33949">
        <ele>503</ele>
        <time>2016-07-30T07:44:37.000Z</time>
      </trkpt>
      <trkpt lat="46.08075" lon="6.33947">
        <ele>507</ele>
        <time>2016-07-30T07:44:44.000Z</time>
      </trkpt>
      <trkpt lat="46.08085" lon="6.33943">
        <ele>506</ele>
        <time>2016-07-30T07:44:54.000Z</time>
      </trkpt>
      <trkpt lat="46.0809" lon="6.33932">
        <ele>504</ele>
        <time>2016-07-30T07:45:02.000Z</time>
      </trkpt>
      <trkpt lat="46.08096" lon="6.33918">
        <ele>506</ele>
        <time>2016-07-30T07:45:10.000Z</time>
      </trkpt>
      <trkpt lat="46.081" lon="6.33906">
        <ele>508</ele>
        <time>2016-07-30T07:45:15.000Z</time>
      </trkpt>
      <trkpt lat="46.0811" lon="6.33903">
        <ele>507</ele>
        <time>2016-07-30T07:45:23.000Z</time>
      </trkpt>
      <trkpt lat="46.0812" lon="6.33898">
        <ele>508</ele>
        <time>2016-07-30T07:45:31.000Z</time>
      </trkpt>
      <trkpt lat="46.08126" lon="6.33887">
        <ele>508</ele>
        <time>2016-07-30T07:45:37.000Z</time>
      </trkpt>
      <trkpt lat="46.08129" lon="6.33874">
        <ele>509</ele>
        <time>2016-07-30T07:45:42.000Z</time>
      </trkpt>
      <trkpt lat="46.08135" lon="6.33864">
        <ele>509</ele>
        <time>2016-07-30T07:45:48.000Z</time>
      </trkpt>
      <trkpt lat="46.08141" lon="6.33852">
        <ele>503</ele>
        <time>2016-07-30T07:45:55.000Z</time>
      </trkpt>
      <trkpt lat="46.08147" lon="6.3384">
        <ele>503</ele>
        <time>2016-07-30T07:46:02.000Z</time>
      </trkpt>
      <trkpt lat="46.08154" lon="6.33829">
        <ele>500</ele>
        <time>2016-07-30T07:46:09.000Z</time>
      </trkpt>
      <trkpt lat="46.08162" lon="6.33821">
        <ele>496</ele>
        <time>2016-07-30T07:46:16.000Z</time>
      </trkpt>
      <trkpt lat="46.08167" lon="6.33808">
        <ele>497</ele>
        <time>2016-07-30T07:46:24.000Z</time>
      </trkpt>
      <trkpt lat="46.08175" lon="6.33799">
        <ele>498</ele>
        <time>2016-07-30T07:46:30.000Z</time>
      </trkpt>
      <trkpt lat="46.08181" lon="6.33788">
        <ele>500</ele>
        <time>2016-07-30T07:46:37.000Z</time>
      </trkpt>
      <trkpt lat="46.08191" lon="6.33786">
        <ele>499</ele>
        <time>2016-07-30T07:46:44.000Z</time>
      </trkpt>
      <trkpt lat="46.082" lon="6.33783">
        <ele>497</ele>
        <time>2016-07-30T07:46:50.000Z</time>
      </trkpt>
      <trkpt lat="46.08208" lon="6.33789">
        <ele>497</ele>
        <time>2016-07-30T07:46:57.000Z</time>
      </trkpt>
      <trkpt lat="46.08218" lon="6.33791">
        <ele>496</ele>
        <time>2016-07-30T07:47:02.000Z</time>
      </trkpt>
      <trkpt lat="46.08228" lon="6.338">
        <ele>497</ele>
        <time>2016-07-30T07:47:11.000Z</time>
      </trkpt>
      <trkpt lat="46.08235" lon="6.33807">
        <ele>502</ele>
        <time>2016-07-30T07:47:16.000Z</time>
      </trkpt>
      <trkpt lat="46.08243" lon="6.33814">
        <ele>497</ele>
        <time>2016-07-30T07:47:25.000Z</time>
      </trkpt>
      <trkpt lat="46.08249" lon="6.33824">
        <ele>495</ele>
        <time>2016-07-30T07:47:33.000Z</time>
      </trkpt>
      <trkpt lat="46.08257" lon="6.33832">
        <ele>496</ele>
        <time>2016-07-30T07:47:40.000Z</time>
      </trkpt>
      <trkpt lat="46.08265" lon="6.3384">
        <ele>498</ele>
        <time>2016-07-30T07:47:48.000Z</time>
      </trkpt>
      <trkpt lat="46.08276" lon="6.33846">
        <ele>495</ele>
        <time>2016-07-30T07:47:55.000Z</time>
      </trkpt>
      <trkpt lat="46.08285" lon="6.33854">
        <ele>497</ele>
        <time>2016-07-30T07:48:00.000Z</time>
      </trkpt>
      <trkpt lat="46.08293" lon="6.33862">
        <ele>496</ele>
        <time>2016-07-30T07:48:05.000Z</time>
      </trkpt>
      <trkpt lat="46.08301" lon="6.33871">
        <ele>496</ele>
        <time>2016-07-30T07:48:12.000Z</time>
      </trkpt>
      <trkpt lat="46.08311" lon="6.33877">
        <ele>494</ele>
        <time>2016-07-30T07:48:20.000Z</time>
      </trkpt>
      <trkpt lat="46.08321" lon="6.33875">
        <ele>492</ele>
        <time>2016-07-30T07:48:30.000Z</time>
      </trkpt>
      <trkpt lat="46.08328" lon="6.33865">
        <ele>493</ele>
        <time>2016-07-30T07:48:38.000Z</time>
      </trkpt>
      <trkpt lat="46.08336" lon="6.33857">
        <ele>494</ele>
        <time>2016-07-30T07:48:48.000Z</time>
      </trkpt>
      <trkpt lat="46.08344" lon="6.33844">
        <ele>497</ele>
        <time>2016-07-30T07:48:58.000Z</time>
      </trkpt>
      <trkpt lat="46.0835" lon="6.33831">
        <ele>497</ele>
        <time>2016-07-30T07:49:04.000Z</time>
      </trkpt>
      <trkpt lat="46.08354" lon="6.33819">
        <ele>494</ele>
        <time>2016-07-30T07:49:09.000Z</time>
      </trkpt>
      <trkpt lat="46.08361" lon="6.3381">
        <ele>495</ele>
        <time>2016-07-30T07:49:17.000Z</time>
      </trkpt>
      <trkpt lat="46.08368" lon="6.33796">
        <ele>495</ele>
        <time>2016-07-30T07:49:22.000Z</time>
      </trkpt>
      <trkpt lat="46.08377" lon="6.3379">
        <ele>493</ele>
        <time>2016-07-30T07:49:33.000Z</time>
      </trkpt>
      <trkpt lat="46.0838" lon="6.33778">
        <ele>496</ele>
        <time>2016-07-30T07:49:38.000Z</time>
      </trkpt>
      <trkpt lat="46.08384" lon="6.33765">
        <ele>499</ele>
        <time>2016-07-30T07:49:44.000Z</time>
      </trkpt>
      <trkpt lat="46.0839" lon="6.33753">
        <ele>500</ele>
        <time>2016-07-30T07:49:50.000Z</time>
      </trkpt>
      <trkpt lat="46.08395" lon="6.33741">
        <ele>498</ele>
        <time>2016-07-30T07:49:57.000Z</time>
      </trkpt>
      <trkpt lat="46.084" lon="6.33731">
        <ele>494</ele>
        <time>2016-07-30T07:50:05.000Z</time>
      </trkpt>
      <trkpt lat="46.08403" lon="6.33718">
        <ele>493</ele>
        <time>2016-07-30T07:50:11.000Z</time>
      </trkpt>
      <trkpt lat="46.08407" lon="6.33704">
        <ele>498</ele>
        <time>2016-07-30T07:50:19.000Z</time>
      </trkpt>
      <trkpt lat="46.08411" lon="6.33692">
        <ele>502</ele>
        <time>2016-07-30T07:50:26.000Z</time>
      </trkpt>
      <trkpt lat="46.08413" lon="6.33674">
        <ele>502</ele>
        <time>2016-07-30T07:50:31.000Z</time>
      </trkpt>
      <trkpt lat="46.08414" lon="6.3366">
        <ele>505</ele>
        <time>2016-07-30T07:50:36.000Z</time>
      </trkpt>
      <trkpt lat="46.08418" lon="6.33646">
        <ele>502</ele>
        <time>2016-07-30T07:50:44.000Z</time>
      </trkpt>
      <trkpt lat="46.0842" lon="6.33633">
        <ele>495</ele>
        <time>2016-07-30T07:50:49.000Z</time>
      </trkpt>
      <trkpt lat="46.08426" lon="6.33622">
        <ele>494</ele>
        <time>2016-07-30T07:50:57.000Z</time>
      </trkpt>
      <trkpt lat="46.08426" lon="6.33609">
        <ele>495</ele>
        <time>2016-07-30T07:51:00.000Z</time>
      </trkpt>
      <trkpt lat="46.08427" lon="6.33595">
        <ele>495</ele>
        <time>2016-07-30T07:51:05.000Z</time>
      </trkpt>
      <trkpt lat="46.08437" lon="6.33598">
        <ele>498</ele>
        <time>2016-07-30T07:51:16.000Z</time>
      </trkpt>
      <trkpt lat="46.08442" lon="6.33586">
        <ele>499</ele>
        <time>2016-07-30T07:51:21.000Z</time>
      </trkpt>
      <trkpt lat="46.0845" lon="6.33595">
        <ele>499</ele>
        <time>2016-07-30T07:51:27.000Z</time>
      </trkpt>
      <trkpt lat="46.08453" lon="6.33579">
        <ele>501</ele>
        <time>2016-07-30T07:51:32.000Z</time>
      </trkpt>
      <trkpt lat="46.08456" lon="6.33564">
        <ele>503</ele>
        <time>2016-07-30T07:51:38.000Z</time>
      </trkpt>
      <trkpt lat="46.08463" lon="6.33551">
        <ele>503</ele>
        <time>2016-07-30T07:51:44.000Z</time>
      </trkpt>
      <trkpt lat="46.0847" lon="6.33542">
        <ele>503</ele>
        <time>2016-07-30T07:51:53.000Z</time>
      </trkpt>
      <trkpt lat="46.08477" lon="6.3353">
        <ele>502</ele>
        <time>2016-07-30T07:52:00.000Z</time>
      </trkpt>
      <trkpt lat="46.08482" lon="6.33519">
        <ele>498</ele>
        <time>2016-07-30T07:52:07.000Z</time>
      </trkpt>
      <trkpt lat="46.08487" lon="6.33508">
        <ele>498</ele>
        <time>2016-07-30T07:52:13.000Z</time>
      </trkpt>
      <trkpt lat="46.08493" lon="6.33498">
        <ele>496</ele>
        <time>2016-07-30T07:52:20.000Z</time>
      </trkpt>
      <trkpt lat="46.085" lon="6.33486">
        <ele>497</ele>
        <time>2016-07-30T07:52:26.000Z</time>
      </trkpt>
      <trkpt lat="46.08507" lon="6.33479">
        <ele>496</ele>
        <time>2016-07-30T07:52:32.000Z</time>
      </trkpt>
      <trkpt lat="46.08512" lon="6.33466">
        <ele>492</ele>
        <time>2016-07-30T07:52:40.000Z</time>
      </trkpt>
      <trkpt lat="46.08516" lon="6.33454">
        <ele>492</ele>
        <time>2016-07-30T07:52:46.000Z</time>
      </trkpt>
      <trkpt lat="46.08518" lon="6.3344">
        <ele>489</ele>
        <time>2016-07-30T07:52:53.000Z</time>
      </trkpt>
      <trkpt lat="46.08522" lon="6.33427">
        <ele>491</ele>
        <time>2016-07-30T07:53:02.000Z</time>
      </trkpt>
      <trkpt lat="46.08528" lon="6.33417">
        <ele>492</ele>
        <time>2016-07-30T07:53:07.000Z</time>
      </trkpt>
      <trkpt lat="46.08534" lon="6.33406">
        <ele>493</ele>
        <time>2016-07-30T07:53:16.000Z</time>
      </trkpt>
      <trkpt lat="46.08534" lon="6.33387">
        <ele>491</ele>
        <time>2016-07-30T07:53:21.000Z</time>
      </trkpt>
      <trkpt lat="46.08537" lon="6.33374">
        <ele>489</ele>
        <time>2016-07-30T07:53:28.000Z</time>
      </trkpt>
      <trkpt lat="46.08543" lon="6.33364">
        <ele>489</ele>
        <time>2016-07-30T07:53:36.000Z</time>
      </trkpt>
      <trkpt lat="46.08544" lon="6.33347">
        <ele>489</ele>
        <time>2016-07-30T07:53:45.000Z</time>
      </trkpt>
      <trkpt lat="46.08549" lon="6.33336">
        <ele>493</ele>
        <time>2016-07-30T07:53:53.000Z</time>
      </trkpt>
      <trkpt lat="46.08555" lon="6.33319">
        <ele>493</ele>
        <time>2016-07-30T07:54:02.000Z</time>
      </trkpt>
      <trkpt lat="46.08558" lon="6.33306">
        <ele>495</ele>
        <time>2016-07-30T07:54:07.000Z</time>
      </trkpt>
      <trkpt lat="46.08564" lon="6.33294">
        <ele>498</ele>
        <time>2016-07-30T07:54:16.000Z</time>
      </trkpt>
      <trkpt lat="46.08572" lon="6.33288">
        <ele>497</ele>
        <time>2016-07-30T07:54:26.000Z</time>
      </trkpt>
      <trkpt lat="46.0858" lon="6.3328">
        <ele>500</ele>
        <time>2016-07-30T07:54:35.000Z</time>
      </trkpt>
      <trkpt lat="46.08589" lon="6.33273">
        <ele>499</ele>
        <time>2016-07-30T07:54:41.000Z</time>
      </trkpt>
      <trkpt lat="46.08597" lon="6.33263">
        <ele>500</ele>
        <time>2016-07-30T07:54:53.000Z</time>
      </trkpt>
      <trkpt lat="46.08604" lon="6.33255">
        <ele>504</ele>
        <time>2016-07-30T07:54:59.000Z</time>
      </trkpt>
      <trkpt lat="46.08613" lon="6.33242">
        <ele>502</ele>
        <time>2016-07-30T07:55:06.000Z</time>
      </trkpt>
      <trkpt lat="46.08622" lon="6.33238">
        <ele>500</ele>
        <time>2016-07-30T07:55:14.000Z</time>
      </trkpt>
      <trkpt lat="46.08629" lon="6.3323">
        <ele>501</ele>
        <time>2016-07-30T07:55:20.000Z</time>
      </trkpt>
      <trkpt lat="46.08623" lon="6.33216">
        <ele>504</ele>
        <time>2016-07-30T07:55:30.000Z</time>
      </trkpt>
      <trkpt lat="46.08615" lon="6.33208">
        <ele>507</ele>
        <time>2016-07-30T07:55:36.000Z</time>
      </trkpt>
      <trkpt lat="46.08609" lon="6.33199">
        <ele>508</ele>
        <time>2016-07-30T07:55:43.000Z</time>
      </trkpt>
      <trkpt lat="46.08603" lon="6.33187">
        <ele>507</ele>
        <time>2016-07-30T07:55:50.000Z</time>
      </trkpt>
      <trkpt lat="46.08595" lon="6.3318">
        <ele>499</ele>
        <time>2016-07-30T07:55:59.000Z</time>
      </trkpt>
      <trkpt lat="46.08588" lon="6.33171">
        <ele>503</ele>
        <time>2016-07-30T07:56:04.000Z</time>
      </trkpt>
      <trkpt lat="46.08585" lon="6.33159">
        <ele>505</ele>
        <time>2016-07-30T07:56:12.000Z</time>
      </trkpt>
      <trkpt lat="46.08578" lon="6.33149">
        <ele>509</ele>
        <time>2016-07-30T07:56:20.000Z</time>
      </trkpt>
      <trkpt lat="46.08567" lon="6.33142">
        <ele>505</ele>
        <time>2016-07-30T07:56:26.000Z</time>
      </trkpt>
      <trkpt lat="46.08561" lon="6.33133">
        <ele>506</ele>
        <time>2016-07-30T07:56:32.000Z</time>
      </trkpt>
      <trkpt lat="46.08554" lon="6.33123">
        <ele>501</ele>
        <time>2016-07-30T07:56:38.000Z</time>
      </trkpt>
      <trkpt lat="46.08547" lon="6.33113">
        <ele>504</ele>
        <time>2016-07-30T07:56:45.000Z</time>
      </trkpt>
      <trkpt lat="46.08541" lon="6.33102">
        <ele>506</ele>
        <time>2016-07-30T07:56:53.000Z</time>
      </trkpt>
      <trkpt lat="46.08534" lon="6.33092">
        <ele>506</ele>
        <time>2016-07-30T07:56:59.000Z</time>
      </trkpt>
      <trkpt lat="46.08528" lon="6.33082">
        <ele>502</ele>
        <time>2016-07-30T07:57:08.000Z</time>
      </trkpt>
      <trkpt lat="46.0852" lon="6.33073">
        <ele>500</ele>
        <time>2016-07-30T07:57:15.000Z</time>
      </trkpt>
      <trkpt lat="46.08513" lon="6.33061">
        <ele>498</ele>
        <time>2016-07-30T07:57:23.000Z</time>
      </trkpt>
      <trkpt lat="46.08506" lon="6.33049">
        <ele>495</ele>
        <time>2016-07-30T07:57:31.000Z</time>
      </trkpt>
      <trkpt lat="46.08498" lon="6.33039">
        <ele>494</ele>
        <time>2016-07-30T07:57:38.000Z</time>
      </trkpt>
      <trkpt lat="46.08493" lon="6.33026">
        <ele>494</ele>
        <time>2016-07-30T07:57:47.000Z</time>
      </trkpt>
      <trkpt lat="46.08489" lon="6.33013">
        <ele>497</ele>
        <time>2016-07-30T07:57:55.000Z</time>
      </trkpt>
      <trkpt lat="46.08485" lon="6.33001">
        <ele>493</ele>
        <time>2016-07-30T07:58:00.000Z</time>
      </trkpt>
      <trkpt lat="46.08481" lon="6.32989">
        <ele>495</ele>
        <time>2016-07-30T07:58:06.000Z</time>
      </trkpt>
      <trkpt lat="46.08474" lon="6.32979">
        <ele>493</ele>
        <time>2016-07-30T07:58:13.000Z</time>
      </trkpt>
      <trkpt lat="46.08467" lon="6.32969">
        <ele>495</ele>
        <time>2016-07-30T07:58:19.000Z</time>
      </trkpt>
      <trkpt lat="46.0846" lon="6.32958">
        <ele>497</ele>
        <time>2016-07-30T07:58:26.000Z</time>
      </trkpt>
      <trkpt lat="46.0845" lon="6.32953">
        <ele>496</ele>
        <time>2016-07-30T07:58:32.000Z</time>
      </trkpt>
      <trkpt lat="46.08442" lon="6.32947">
        <ele>494</ele>
        <time>2016-07-30T07:58:38.000Z</time>
      </trkpt>
      <trkpt lat="46.08433" lon="6.32942">
        <ele>498</ele>
        <time>2016-07-30T07:58:48.000Z</time>
      </trkpt>
      <trkpt lat="46.08424" lon="6.3294">
        <ele>498</ele>
        <time>2016-07-30T07:58:55.000Z</time>
      </trkpt>
      <trkpt lat="46.08415" lon="6.32935">
        <ele>502</ele>
        <time>2016-07-30T07:59:02.000Z</time>
      </trkpt>
      <trkpt lat="46.08405" lon="6.32933">
        <ele>508</ele>
        <time>2016-07-30T07:59:09.000Z</time>
      </trkpt>
      <trkpt lat="46.08398" lon="6.32924">
        <ele>511</ele>
        <time>2016-07-30T07:59:16.000Z</time>
      </trkpt>
      <trkpt lat="46.08389" lon="6.32925">
        <ele>514</ele>
        <time>2016-07-30T07:59:21.000Z</time>
      </trkpt>
      <trkpt lat="46.08382" lon="6.32913">
        <ele>508</ele>
        <time>2016-07-30T07:59:28.000Z</time>
      </trkpt>
      <trkpt lat="46.08373" lon="6.32908">
        <ele>506</ele>
        <time>2016-07-30T07:59:34.000Z</time>
      </trkpt>
      <trkpt lat="46.08365" lon="6.32904">
        <ele>504</ele>
        <time>2016-07-30T07:59:41.000Z</time>
      </trkpt>
      <trkpt lat="46.08354" lon="6.32901">
        <ele>509</ele>
        <time>2016-07-30T07:59:49.000Z</time>
      </trkpt>
      <trkpt lat="46.08345" lon="6.32895">
        <ele>509</ele>
        <time>2016-07-30T07:59:56.000Z</time>
      </trkpt>
      <trkpt lat="46.08337" lon="6.32885">
        <ele>503</ele>
        <time>2016-07-30T08:00:04.000Z</time>
      </trkpt>
      <trkpt lat="46.08329" lon="6.32875">
        <ele>503</ele>
        <time>2016-07-30T08:00:10.000Z</time>
      </trkpt>
      <trkpt lat="46.08319" lon="6.3287">
        <ele>497</ele>
        <time>2016-07-30T08:00:18.000Z</time>
      </trkpt>
      <trkpt lat="46.08313" lon="6.3286">
        <ele>501</ele>
        <time>2016-07-30T08:00:25.000Z</time>
      </trkpt>
      <trkpt lat="46.08307" lon="6.3285">
        <ele>501</ele>
        <time>2016-07-30T08:00:32.000Z</time>
      </trkpt>
      <trkpt lat="46.08298" lon="6.32842">
        <ele>496</ele>
        <time>2016-07-30T08:00:39.000Z</time>
      </trkpt>
      <trkpt lat="46.08289" lon="6.32836">
        <ele>493</ele>
        <time>2016-07-30T08:00:49.000Z</time>
      </trkpt>
      <trkpt lat="46.0828" lon="6.32828">
        <ele>499</ele>
        <time>2016-07-30T08:00:54.000Z</time>
      </trkpt>
      <trkpt lat="46.0827" lon="6.32824">
        <ele>496</ele>
        <time>2016-07-30T08:01:03.000Z</time>
      </trkpt>
      <trkpt lat="46.08262" lon="6.32822">
        <ele>498</ele>
        <time>2016-07-30T08:01:09.000Z</time>
      </trkpt>
      <trkpt lat="46.08251" lon="6.32821">
        <ele>493</ele>
        <time>2016-07-30T08:01:16.000Z</time>
      </trkpt>
      <trkpt lat="46.08242" lon="6.32815">
        <ele>493</ele>
        <time>2016-07-30T08:01:23.000Z</time>
      </trkpt>
      <trkpt lat="46.08229" lon="6.32813">
        <ele>498</ele>
        <time>2016-07-30T08:01:33.000Z</time>
      </trkpt>
      <trkpt lat="46.08219" lon="6.32814">
        <ele>498</ele>
        <time>2016-07-30T08:01:38.000Z</time>
      </trkpt>
      <trkpt lat="46.0821" lon="6.32817">
        <ele>498</ele>
        <time>2016-07-30T08:01:45.000Z</time>
      </trkpt>
      <trkpt lat="46.08199" lon="6.32817">
        <ele>503</ele>
        <time>2016-07-30T08:01:55.000Z</time>
      </trkpt>
      <trkpt lat="46.0819" lon="6.32818">
        <ele>504</ele>
        <time>2016-07-30T08:02:01.000Z</time>
      </trkpt>
      <trkpt lat="46.08181" lon="6.3282">
        <ele>509</ele>
        <time>2016-07-30T08:02:09.000Z</time>
      </trkpt>
      <trkpt lat="46.08172" lon="6.32818">
        <ele>503</ele>
        <time>2016-07-30T08:02:16.000Z</time>
      </trkpt>
      <trkpt lat="46.08161" lon="6.3282">
        <ele>509</ele>
        <time>2016-07-30T08:02:23.000Z</time>
      </trkpt>
      <trkpt lat="46.0815" lon="6.32821">
        <ele>518</ele>
        <time>2016-07-30T08:02:31.000Z</time>
      </trkpt>
      <trkpt lat="46.0814" lon="6.32823">
        <ele>518</ele>
        <time>2016-07-30T08:02:36.000Z</time>
      </trkpt>
      <trkpt lat="46.08131" lon="6.32824">
        <ele>517</ele>
        <time>2016-07-30T08:02:45.000Z</time>
      </trkpt>
      <trkpt lat="46.08122" lon="6.32823">
        <ele>515</ele>
        <time>2016-07-30T08:02:52.000Z</time>
      </trkpt>
      <trkpt lat="46.08112" lon="6.32823">
        <ele>515</ele>
        <time>2016-07-30T08:03:00.000Z</time>
      </trkpt>
      <trkpt lat="46.08102" lon="6.32826">
        <ele>517</ele>
        <time>2016-07-30T08:03:06.000Z</time>
      </trkpt>
      <trkpt lat="46.08093" lon="6.32825">
        <ele>521</ele>
        <time>2016-07-30T08:03:13.000Z</time>
      </trkpt>
      <trkpt lat="46.08083" lon="6.32825">
        <ele>528</ele>
        <time>2016-07-30T08:03:22.000Z</time>
      </trkpt>
      <trkpt lat="46.08075" lon="6.32831">
        <ele>529</ele>
        <time>2016-07-30T08:03:28.000Z</time>
      </trkpt>
      <trkpt lat="46.08065" lon="6.32831">
        <ele>531</ele>
        <time>2016-07-30T08:03:39.000Z</time>
      </trkpt>
      <trkpt lat="46.08057" lon="6.32838">
        <ele>535</ele>
        <time>2016-07-30T08:03:46.000Z</time>
      </trkpt>
      <trkpt lat="46.08049" lon="6.32845">
        <ele>533</ele>
        <time>2016-07-30T08:03:51.000Z</time>
      </trkpt>
      <trkpt lat="46.08041" lon="6.32851">
        <ele>527</ele>
        <time>2016-07-30T08:03:56.000Z</time>
      </trkpt>
      <trkpt lat="46.08032" lon="6.32857">
        <ele>523</ele>
        <time>2016-07-30T08:04:02.000Z</time>
      </trkpt>
      <trkpt lat="46.08025" lon="6.32865">
        <ele>524</ele>
        <time>2016-07-30T08:04:09.000Z</time>
      </trkpt>
      <trkpt lat="46.08018" lon="6.32874">
        <ele>522</ele>
        <time>2016-07-30T08:04:15.000Z</time>
      </trkpt>
      <trkpt lat="46.08012" lon="6.32885">
        <ele>521</ele>
        <time>2016-07-30T08:04:20.000Z</time>
      </trkpt>
      <trkpt lat="46.08005" lon="6.32892">
        <ele>519</ele>
        <time>2016-07-30T08:04:26.000Z</time>
      </trkpt>
      <trkpt lat="46.07997" lon="6.32901">
        <ele>515</ele>
        <time>2016-07-30T08:04:33.000Z</time>
      </trkpt>
      <trkpt lat="46.07989" lon="6.32909">
        <ele>513</ele>
        <time>2016-07-30T08:04:40.000Z</time>
      </trkpt>
      <trkpt lat="46.07981" lon="6.32917">
        <ele>513</ele>
        <time>2016-07-30T08:04:47.000Z</time>
      </trkpt>
      <trkpt lat="46.07972" lon="6.32924">
        <ele>512</ele>
        <time>2016-07-30T08:04:54.000Z</time>
      </trkpt>
      <trkpt lat="46.07962" lon="6.32925">
        <ele>513</ele>
        <time>2016-07-30T08:05:01.000Z</time>
      </trkpt>
      <trkpt lat="46.07953" lon="6.32924">
        <ele>517</ele>
        <time>2016-07-30T08:05:11.000Z</time>
      </trkpt>
      <trkpt lat="46.07943" lon="6.32924">
        <ele>520</ele>
        <time>2016-07-30T08:05:20.000Z</time>
      </trkpt>
      <trkpt lat="46.07933" lon="6.32927">
        <ele>522</ele>
        <time>2016-07-30T08:05:26.000Z</time>
      </trkpt>
      <trkpt lat="46.07924" lon="6.32929">
        <ele>521</ele>
        <time>2016-07-30T08:05:34.000Z</time>
      </trkpt>
      <trkpt lat="46.07915" lon="6.32933">
        <ele>519</ele>
        <time>2016-07-30T08:05:40.000Z</time>
      </trkpt>
      <trkpt lat="46.07906" lon="6.32934">
        <ele>515</ele>
        <time>2016-07-30T08:05:48.000Z</time>
      </trkpt>
      <trkpt lat="46.07895" lon="6.32935">
        <ele>516</ele>
        <time>2016-07-30T08:05:54.000Z</time>
      </trkpt>
      <trkpt lat="46.07887" lon="6.32937">
        <ele>517</ele>
        <time>2016-07-30T08:05:59.000Z</time>
      </trkpt>
      <trkpt lat="46.07877" lon="6.32936">
        <ele>517</ele>
        <time>2016-07-30T08:06:07.000Z</time>
      </trkpt>
      <trkpt lat="46.07867" lon="6.32929">
        <ele>512</ele>
        <time>2016-07-30T08:06:14.000Z</time>
      </trkpt>
      <trkpt lat="46.07857" lon="6.32929">
        <ele>510</ele>
        <time>2016-07-30T08:06:20.000Z</time>
      </trkpt>
      <trkpt lat="46.07848" lon="6.32929">
        <ele>511</ele>
        <time>2016-07-30T08:06:26.000Z</time>
      </trkpt>
      <trkpt lat="46.07838" lon="6.32928">
        <ele>512</ele>
        <time>2016-07-30T08:06:32.000Z</time>
      </trkpt>
      <trkpt lat="46.07828" lon="6.32929">
        <ele>512</ele>
        <time>2016-07-30T08:06:39.000Z</time>
      </trkpt>
      <trkpt lat="46.07818" lon="6.32932">
        <ele>515</ele>
        <time>2016-07-30T08:06:49.000Z</time>
      </trkpt>
      <trkpt lat="46.07809" lon="6.32935">
        <ele>514</ele>
        <time>2016-07-30T08:06:55.000Z</time>
      </trkpt>
      <trkpt lat="46.078" lon="6.32941">
        <ele>517</ele>
        <time>2016-07-30T08:07:02.000Z</time>
      </trkpt>
      <trkpt lat="46.07792" lon="6.32946">
        <ele>518</ele>
        <time>2016-07-30T08:07:08.000Z</time>
      </trkpt>
      <trkpt lat="46.07782" lon="6.32952">
        <ele>523</ele>
        <time>2016-07-30T08:07:18.000Z</time>
      </trkpt>
      <trkpt lat="46.07773" lon="6.32952">
        <ele>526</ele>
        <time>2016-07-30T08:07:26.000Z</time>
      </trkpt>
      <trkpt lat="46.07764" lon="6.32953">
        <ele>524</ele>
        <time>2016-07-30T08:07:31.000Z</time>
      </trkpt>
      <trkpt lat="46.07755" lon="6.32955">
        <ele>524</ele>
        <time>2016-07-30T08:07:37.000Z</time>
      </trkpt>
      <trkpt lat="46.07745" lon="6.32956">
        <ele>525</ele>
        <time>2016-07-30T08:07:43.000Z</time>
      </trkpt>
      <trkpt lat="46.07735" lon="6.32952">
        <ele>523</ele>
        <time>2016-07-30T08:07:51.000Z</time>
      </trkpt>
      <trkpt lat="46.07726" lon="6.32944">
        <ele>520</ele>
        <time>2016-07-30T08:07:58.000Z</time>
      </trkpt>
      <trkpt lat="46.07716" lon="6.32942">
        <ele>519</ele>
        <time>2016-07-30T08:08:05.000Z</time>
      </trkpt>
      <trkpt lat="46.07707" lon="6.32942">
        <ele>517</ele>
        <time>2016-07-30T08:08:13.000Z</time>
      </trkpt>
      <trkpt lat="46.07697" lon="6.32939">
        <ele>515</ele>
        <time>2016-07-30T08:08:18.000Z</time>
      </trkpt>
      <trkpt lat="46.07687" lon="6.32938">
        <ele>519</ele>
        <time>2016-07-30T08:08:26.000Z</time>
      </trkpt>
      <trkpt lat="46.07676" lon="6.32935">
        <ele>517</ele>
        <time>2016-07-30T08:08:33.000Z</time>
      </trkpt>
      <trkpt lat="46.07667" lon="6.32931">
        <ele>513</ele>
        <time>2016-07-30T08:08:48.000Z</time>
      </trkpt>
      <trkpt lat="46.07657" lon="6.32929">
        <ele>516</ele>
        <time>2016-07-30T08:19:17.000Z</time>
      </trkpt>
      <trkpt lat="46.07648" lon="6.32929">
        <ele>514</ele>
        <time>2016-07-30T08:19:24.000Z</time>
      </trkpt>
      <trkpt lat="46.07637" lon="6.32932">
        <ele>525</ele>
        <time>2016-07-30T08:19:32.000Z</time>
      </trkpt>
      <trkpt lat="46.07628" lon="6.32933">
        <ele>523</ele>
        <time>2016-07-30T08:19:39.000Z</time>
      </trkpt>
      <trkpt lat="46.07618" lon="6.32933">
        <ele>515</ele>
        <time>2016-07-30T08:19:47.000Z</time>
      </trkpt>
      <trkpt lat="46.07607" lon="6.32931">
        <ele>516</ele>
        <time>2016-07-30T08:19:54.000Z</time>
      </trkpt>
      <trkpt lat="46.07598" lon="6.32929">
        <ele>518</ele>
        <time>2016-07-30T08:20:01.000Z</time>
      </trkpt>
      <trkpt lat="46.07587" lon="6.3293">
        <ele>522</ele>
        <time>2016-07-30T08:20:07.000Z</time>
      </trkpt>
      <trkpt lat="46.07577" lon="6.32928">
        <ele>525</ele>
        <time>2016-07-30T08:20:14.000Z</time>
      </trkpt>
      <trkpt lat="46.07567" lon="6.32925">
        <ele>525</ele>
        <time>2016-07-30T08:20:22.000Z</time>
      </trkpt>
      <trkpt lat="46.07558" lon="6.32924">
        <ele>527</ele>
        <time>2016-07-30T08:20:29.000Z</time>
      </trkpt>
      <trkpt lat="46.07549" lon="6.32922">
        <ele>525</ele>
        <time>2016-07-30T08:20:36.000Z</time>
      </trkpt>
      <trkpt lat="46.07538" lon="6.32917">
        <ele>525</ele>
        <time>2016-07-30T08:20:43.000Z</time>
      </trkpt>
      <trkpt lat="46.0753" lon="6.32912">
        <ele>523</ele>
        <time>2016-07-30T08:20:50.000Z</time>
      </trkpt>
      <trkpt lat="46.07521" lon="6.32908">
        <ele>526</ele>
        <time>2016-07-30T08:20:56.000Z</time>
      </trkpt>
      <trkpt lat="46.07512" lon="6.32902">
        <ele>530</ele>
        <time>2016-07-30T08:21:04.000Z</time>
      </trkpt>
      <trkpt lat="46.07504" lon="6.32895">
        <ele>527</ele>
        <time>2016-07-30T08:21:10.000Z</time>
      </trkpt>
      <trkpt lat="46.07494" lon="6.32889">
        <ele>525</ele>
        <time>2016-07-30T08:21:16.000Z</time>
      </trkpt>
      <trkpt lat="46.07484" lon="6.32883">
        <ele>528</ele>
        <time>2016-07-30T08:21:22.000Z</time>
      </trkpt>
      <trkpt lat="46.07475" lon="6.32878">
        <ele>535</ele>
        <time>2016-07-30T08:21:29.000Z</time>
      </trkpt>
      <trkpt lat="46.0747" lon="6.32865">
        <ele>531</ele>
        <time>2016-07-30T08:21:38.000Z</time>
      </trkpt>
      <trkpt lat="46.07465" lon="6.32853">
        <ele>527</ele>
        <time>2016-07-30T08:21:46.000Z</time>
      </trkpt>
      <trkpt lat="46.07456" lon="6.32848">
        <ele>531</ele>
        <time>2016-07-30T08:21:52.000Z</time>
      </trkpt>
      <trkpt lat="46.07454" lon="6.32835">
        <ele>527</ele>
        <time>2016-07-30T08:22:00.000Z</time>
      </trkpt>
      <trkpt lat="46.07461" lon="6.32824">
        <ele>525</ele>
        <time>2016-07-30T08:22:06.000Z</time>
      </trkpt>
      <trkpt lat="46.07468" lon="6.32815">
        <ele>524</ele>
        <time>2016-07-30T08:22:12.000Z</time>
      </trkpt>
      <trkpt lat="46.07476" lon="6.32807">
        <ele>526</ele>
        <time>2016-07-30T08:22:19.000Z</time>
      </trkpt>
      <trkpt lat="46.07485" lon="6.32805">
        <ele>520</ele>
        <time>2016-07-30T08:22:25.000Z</time>
      </trkpt>
      <trkpt lat="46.07491" lon="6.32795">
        <ele>518</ele>
        <time>2016-07-30T08:22:32.000Z</time>
      </trkpt>
      <trkpt lat="46.07499" lon="6.32786">
        <ele>520</ele>
        <time>2016-07-30T08:22:38.000Z</time>
      </trkpt>
      <trkpt lat="46.07507" lon="6.32777">
        <ele>519</ele>
        <time>2016-07-30T08:22:44.000Z</time>
      </trkpt>
      <trkpt lat="46.07517" lon="6.32774">
        <ele>516</ele>
        <time>2016-07-30T08:22:51.000Z</time>
      </trkpt>
      <trkpt lat="46.07526" lon="6.3277">
        <ele>518</ele>
        <time>2016-07-30T08:23:00.000Z</time>
      </trkpt>
      <trkpt lat="46.07534" lon="6.32765">
        <ele>519</ele>
        <time>2016-07-30T08:23:06.000Z</time>
      </trkpt>
      <trkpt lat="46.07543" lon="6.32757">
        <ele>516</ele>
        <time>2016-07-30T08:23:12.000Z</time>
      </trkpt>
      <trkpt lat="46.0755" lon="6.32748">
        <ele>516</ele>
        <time>2016-07-30T08:23:16.000Z</time>
      </trkpt>
      <trkpt lat="46.07559" lon="6.32743">
        <ele>517</ele>
        <time>2016-07-30T08:23:21.000Z</time>
      </trkpt>
      <trkpt lat="46.07567" lon="6.32736">
        <ele>523</ele>
        <time>2016-07-30T08:23:29.000Z</time>
      </trkpt>
      <trkpt lat="46.07576" lon="6.32732">
        <ele>521</ele>
        <time>2016-07-30T08:23:34.000Z</time>
      </trkpt>
      <trkpt lat="46.07581" lon="6.32721">
        <ele>520</ele>
        <time>2016-07-30T08:23:41.000Z</time>
      </trkpt>
      <trkpt lat="46.07588" lon="6.32711">
        <ele>520</ele>
        <time>2016-07-30T08:23:47.000Z</time>
      </trkpt>
      <trkpt lat="46.07597" lon="6.3271">
        <ele>518</ele>
        <time>2016-07-30T08:23:54.000Z</time>
      </trkpt>
      <trkpt lat="46.07604" lon="6.32699">
        <ele>517</ele>
        <time>2016-07-30T08:24:01.000Z</time>
      </trkpt>
      <trkpt lat="46.0761" lon="6.32689">
        <ele>515</ele>
        <time>2016-07-30T08:24:08.000Z</time>
      </trkpt>
      <trkpt lat="46.0762" lon="6.32685">
        <ele>512</ele>
        <time>2016-07-30T08:24:14.000Z</time>
      </trkpt>
      <trkpt lat="46.07627" lon="6.32675">
        <ele>519</ele>
        <time>2016-07-30T08:24:19.000Z</time>
      </trkpt>
      <trkpt lat="46.07634" lon="6.32666">
        <ele>519</ele>
        <time>2016-07-30T08:24:25.000Z</time>
      </trkpt>
      <trkpt lat="46.07644" lon="6.32663">
        <ele>519</ele>
        <time>2016-07-30T08:24:30.000Z</time>
      </trkpt>
      <trkpt lat="46.07652" lon="6.32653">
        <ele>520</ele>
        <time>2016-07-30T08:24:38.000Z</time>
      </trkpt>
      <trkpt lat="46.0766" lon="6.32643">
        <ele>517</ele>
        <time>2016-07-30T08:24:44.000Z</time>
      </trkpt>
      <trkpt lat="46.07669" lon="6.32642">
        <ele>512</ele>
        <time>2016-07-30T08:24:54.000Z</time>
      </trkpt>
      <trkpt lat="46.07678" lon="6.32636">
        <ele>512</ele>
        <time>2016-07-30T08:25:01.000Z</time>
      </trkpt>
      <trkpt lat="46.07688" lon="6.3263">
        <ele>510</ele>
        <time>2016-07-30T08:25:07.000Z</time>
      </trkpt>
      <trkpt lat="46.07696" lon="6.32621">
        <ele>505</ele>
        <time>2016-07-30T08:25:15.000Z</time>
      </trkpt>
      <trkpt lat="46.07706" lon="6.32619">
        <ele>504</ele>
        <time>2016-07-30T08:25:21.000Z</time>
      </trkpt>
      <trkpt lat="46.07712" lon="6.32609">
        <ele>508</ele>
        <time>2016-07-30T08:25:26.000Z</time>
      </trkpt>
      <trkpt lat="46.07718" lon="6.32599">
        <ele>510</ele>
        <time>2016-07-30T08:25:35.000Z</time>
      </trkpt>
      <trkpt lat="46.07725" lon="6.32588">
        <ele>506</ele>
        <time>2016-07-30T08:25:40.000Z</time>
      </trkpt>
      <trkpt lat="46.07729" lon="6.32575">
        <ele>506</ele>
        <time>2016-07-30T08:25:47.000Z</time>
      </trkpt>
      <trkpt lat="46.0774" lon="6.32568">
        <ele>509</ele>
        <time>2016-07-30T08:25:52.000Z</time>
      </trkpt>
      <trkpt lat="46.07747" lon="6.32561">
        <ele>514</ele>
        <time>2016-07-30T08:25:56.000Z</time>
      </trkpt>
      <trkpt lat="46.07752" lon="6.32545">
        <ele>517</ele>
        <time>2016-07-30T08:26:06.000Z</time>
      </trkpt>
      <trkpt lat="46.07757" lon="6.32533">
        <ele>512</ele>
        <time>2016-07-30T08:26:14.000Z</time>
      </trkpt>
      <trkpt lat="46.07764" lon="6.32523">
        <ele>510</ele>
        <time>2016-07-30T08:26:22.000Z</time>
      </trkpt>
      <trkpt lat="46.07772" lon="6.32516">
        <ele>511</ele>
        <time>2016-07-30T08:26:28.000Z</time>
      </trkpt>
      <trkpt lat="46.07772" lon="6.32502">
        <ele>511</ele>
        <time>2016-07-30T08:26:33.000Z</time>
      </trkpt>
      <trkpt lat="46.07774" lon="6.32488">
        <ele>514</ele>
        <time>2016-07-30T08:26:49.000Z</time>
      </trkpt>
      <trkpt lat="46.07767" lon="6.32476">
        <ele>515</ele>
        <time>2016-07-30T08:26:54.000Z</time>
      </trkpt>
      <trkpt lat="46.07762" lon="6.32466">
        <ele>510</ele>
        <time>2016-07-30T08:27:02.000Z</time>
      </trkpt>
      <trkpt lat="46.07755" lon="6.32456">
        <ele>516</ele>
        <time>2016-07-30T08:27:08.000Z</time>
      </trkpt>
      <trkpt lat="46.07748" lon="6.32445">
        <ele>519</ele>
        <time>2016-07-30T08:27:15.000Z</time>
      </trkpt>
      <trkpt lat="46.07741" lon="6.32436">
        <ele>522</ele>
        <time>2016-07-30T08:27:20.000Z</time>
      </trkpt>
      <trkpt lat="46.07734" lon="6.32426">
        <ele>518</ele>
        <time>2016-07-30T08:27:26.000Z</time>
      </trkpt>
      <trkpt lat="46.0773" lon="6.32415">
        <ele>522</ele>
        <time>2016-07-30T08:27:34.000Z</time>
      </trkpt>
      <trkpt lat="46.07724" lon="6.32403">
        <ele>523</ele>
        <time>2016-07-30T08:27:43.000Z</time>
      </trkpt>
      <trkpt lat="46.07721" lon="6.32392">
        <ele>524</ele>
        <time>2016-07-30T08:27:48.000Z</time>
      </trkpt>
      <trkpt lat="46.07715" lon="6.32379">
        <ele>520</ele>
        <time>2016-07-30T08:27:53.000Z</time>
      </trkpt>
      <trkpt lat="46.0771" lon="6.32367">
        <ele>524</ele>
        <time>2016-07-30T08:28:01.000Z</time>
      </trkpt>
      <trkpt lat="46.07707" lon="6.32355">
        <ele>517</ele>
        <time>2016-07-30T08:28:06.000Z</time>
      </trkpt>
      <trkpt lat="46.07708" lon="6.32341">
        <ele>518</ele>
        <time>2016-07-30T08:28:18.000Z</time>
      </trkpt>
      <trkpt lat="46.07714" lon="6.32329">
        <ele>516</ele>
        <time>2016-07-30T08:28:26.000Z</time>
      </trkpt>
      <trkpt lat="46.07717" lon="6.32314">
        <ele>515</ele>
        <time>2016-07-30T08:28:33.000Z</time>
      </trkpt>
      <trkpt lat="46.07725" lon="6.32306">
        <ele>517</ele>
        <time>2016-07-30T08:28:40.000Z</time>
      </trkpt>
      <trkpt lat="46.07729" lon="6.32291">
        <ele>515</ele>
        <time>2016-07-30T08:28:46.000Z</time>
      </trkpt>
      <trkpt lat="46.07731" lon="6.32277">
        <ele>511</ele>
        <time>2016-07-30T08:28:53.000Z</time>
      </trkpt>
      <trkpt lat="46.07735" lon="6.32264">
        <ele>515</ele>
        <time>2016-07-30T08:29:04.000Z</time>
      </trkpt>
      <trkpt lat="46.07738" lon="6.32251">
        <ele>516</ele>
        <time>2016-07-30T08:29:09.000Z</time>
      </trkpt>
      <trkpt lat="46.07742" lon="6.3224">
        <ele>518</ele>
        <time>2016-07-30T08:29:14.000Z</time>
      </trkpt>
      <trkpt lat="46.07745" lon="6.32225">
        <ele>517</ele>
        <time>2016-07-30T08:29:20.000Z</time>
      </trkpt>
      <trkpt lat="46.07751" lon="6.32213">
        <ele>513</ele>
        <time>2016-07-30T08:29:29.000Z</time>
      </trkpt>
      <trkpt lat="46.07755" lon="6.322">
        <ele>514</ele>
        <time>2016-07-30T08:29:36.000Z</time>
      </trkpt>
      <trkpt lat="46.07761" lon="6.3219">
        <ele>515</ele>
        <time>2016-07-30T08:29:42.000Z</time>
      </trkpt>
      <trkpt lat="46.07767" lon="6.32181">
        <ele>514</ele>
        <time>2016-07-30T08:29:50.000Z</time>
      </trkpt>
      <trkpt lat="46.07771" lon="6.32167">
        <ele>507</ele>
        <time>2016-07-30T08:29:58.000Z</time>
      </trkpt>
      <trkpt lat="46.07774" lon="6.32154">
        <ele>508</ele>
        <time>2016-07-30T08:30:03.000Z</time>
      </trkpt>
      <trkpt lat="46.07777" lon="6.32141">
        <ele>507</ele>
        <time>2016-07-30T08:30:08.000Z</time>
      </trkpt>
      <trkpt lat="46.07783" lon="6.32132">
        <ele>509</ele>
        <time>2016-07-30T08:30:16.000Z</time>
      </trkpt>
      <trkpt lat="46.07786" lon="6.32119">
        <ele>508</ele>
        <time>2016-07-30T08:30:25.000Z</time>
      </trkpt>
      <trkpt lat="46.07787" lon="6.32106">
        <ele>509</ele>
        <time>2016-07-30T08:30:30.000Z</time>
      </trkpt>
      <trkpt lat="46.07782" lon="6.32092">
        <ele>512</ele>
        <time>2016-07-30T08:30:36.000Z</time>
      </trkpt>
      <trkpt lat="46.07776" lon="6.32082">
        <ele>515</ele>
        <time>2016-07-30T08:30:40.000Z</time>
      </trkpt>
      <trkpt lat="46.07772" lon="6.32069">
        <ele>517</ele>
        <time>2016-07-30T08:30:48.000Z</time>
      </trkpt>
      <trkpt lat="46.07769" lon="6.32057">
        <ele>521</ele>
        <time>2016-07-30T08:30:56.000Z</time>
      </trkpt>
      <trkpt lat="46.07765" lon="6.32045">
        <ele>524</ele>
        <time>2016-07-30T08:31:03.000Z</time>
      </trkpt>
      <trkpt lat="46.07759" lon="6.32034">
        <ele>524</ele>
        <time>2016-07-30T08:31:08.000Z</time>
      </trkpt>
      <trkpt lat="46.07753" lon="6.32021">
        <ele>524</ele>
        <time>2016-07-30T08:31:14.000Z</time>
      </trkpt>
      <trkpt lat="46.07748" lon="6.32008">
        <ele>524</ele>
        <time>2016-07-30T08:31:22.000Z</time>
      </trkpt>
      <trkpt lat="46.07744" lon="6.31993">
        <ele>524</ele>
        <time>2016-07-30T08:31:32.000Z</time>
      </trkpt>
      <trkpt lat="46.07739" lon="6.31982">
        <ele>527</ele>
        <time>2016-07-30T08:31:42.000Z</time>
      </trkpt>
      <trkpt lat="46.07733" lon="6.31971">
        <ele>526</ele>
        <time>2016-07-30T08:31:50.000Z</time>
      </trkpt>
      <trkpt lat="46.0773" lon="6.31958">
        <ele>526</ele>
        <time>2016-07-30T08:31:58.000Z</time>
      </trkpt>
      <trkpt lat="46.07725" lon="6.31946">
        <ele>527</ele>
        <time>2016-07-30T08:32:07.000Z</time>
      </trkpt>
      <trkpt lat="46.07725" lon="6.31933">
        <ele>528</ele>
        <time>2016-07-30T08:32:17.000Z</time>
      </trkpt>
      <trkpt lat="46.07721" lon="6.31921">
        <ele>528</ele>
        <time>2016-07-30T08:32:26.000Z</time>
      </trkpt>
      <trkpt lat="46.07715" lon="6.3191">
        <ele>527</ele>
        <time>2016-07-30T08:32:35.000Z</time>
      </trkpt>
      <trkpt lat="46.07708" lon="6.31899">
        <ele>528</ele>
        <time>2016-07-30T08:32:43.000Z</time>
      </trkpt>
      <trkpt lat="46.07703" lon="6.31887">
        <ele>530</ele>
        <time>2016-07-30T08:32:48.000Z</time>
      </trkpt>
      <trkpt lat="46.07698" lon="6.31875">
        <ele>531</ele>
        <time>2016-07-30T08:32:57.000Z</time>
      </trkpt>
      <trkpt lat="46.0769" lon="6.31868">
        <ele>535</ele>
        <time>2016-07-30T08:33:04.000Z</time>
      </trkpt>
      <trkpt lat="46.07681" lon="6.31863">
        <ele>539</ele>
        <time>2016-07-30T08:33:14.000Z</time>
      </trkpt>
      <trkpt lat="46.07672" lon="6.31856">
        <ele>544</ele>
        <time>2016-07-30T08:33:34.000Z</time>
      </trkpt>
      <trkpt lat="46.07664" lon="6.31851">
        <ele>543</ele>
        <time>2016-07-30T08:33:39.000Z</time>
      </trkpt>
      <trkpt lat="46.07653" lon="6.3185">
        <ele>543</ele>
        <time>2016-07-30T08:33:46.000Z</time>
      </trkpt>
      <trkpt lat="46.07644" lon="6.31851">
        <ele>542</ele>
        <time>2016-07-30T08:33:51.000Z</time>
      </trkpt>
      <trkpt lat="46.07634" lon="6.31853">
        <ele>540</ele>
        <time>2016-07-30T08:33:58.000Z</time>
      </trkpt>
      <trkpt lat="46.07624" lon="6.31856">
        <ele>540</ele>
        <time>2016-07-30T08:34:03.000Z</time>
      </trkpt>
      <trkpt lat="46.07613" lon="6.31857">
        <ele>542</ele>
        <time>2016-07-30T08:34:11.000Z</time>
      </trkpt>
      <trkpt lat="46.07604" lon="6.31857">
        <ele>541</ele>
        <time>2016-07-30T08:34:19.000Z</time>
      </trkpt>
      <trkpt lat="46.07595" lon="6.3186">
        <ele>540</ele>
        <time>2016-07-30T08:34:28.000Z</time>
      </trkpt>
      <trkpt lat="46.07585" lon="6.31865">
        <ele>544</ele>
        <time>2016-07-30T08:34:35.000Z</time>
      </trkpt>
      <trkpt lat="46.07574" lon="6.31866">
        <ele>545</ele>
        <time>2016-07-30T08:34:41.000Z</time>
      </trkpt>
      <trkpt lat="46.07564" lon="6.31866">
        <ele>541</ele>
        <time>2016-07-30T08:34:47.000Z</time>
      </trkpt>
      <trkpt lat="46.07555" lon="6.31871">
        <ele>543</ele>
        <time>2016-07-30T08:34:57.000Z</time>
      </trkpt>
      <trkpt lat="46.07546" lon="6.31873">
        <ele>546</ele>
        <time>2016-07-30T08:35:06.000Z</time>
      </trkpt>
      <trkpt lat="46.07538" lon="6.31866">
        <ele>545</ele>
        <time>2016-07-30T08:35:13.000Z</time>
      </trkpt>
      <trkpt lat="46.07529" lon="6.31863">
        <ele>549</ele>
        <time>2016-07-30T08:35:20.000Z</time>
      </trkpt>
      <trkpt lat="46.07521" lon="6.31856">
        <ele>549</ele>
        <time>2016-07-30T08:35:28.000Z</time>
      </trkpt>
      <trkpt lat="46.07514" lon="6.31848">
        <ele>554</ele>
        <time>2016-07-30T08:35:36.000Z</time>
      </trkpt>
      <trkpt lat="46.07507" lon="6.31839">
        <ele>553</ele>
        <time>2016-07-30T08:35:46.000Z</time>
      </trkpt>
      <trkpt lat="46.07499" lon="6.3183">
        <ele>553</ele>
        <time>2016-07-30T08:35:55.000Z</time>
      </trkpt>
      <trkpt lat="46.07491" lon="6.31822">
        <ele>551</ele>
        <time>2016-07-30T08:36:02.000Z</time>
      </trkpt>
      <trkpt lat="46.07482" lon="6.31815">
        <ele>547</ele>
        <time>2016-07-30T08:36:10.000Z</time>
      </trkpt>
      <trkpt lat="46.07476" lon="6.31804">
        <ele>551</ele>
        <time>2016-07-30T08:36:21.000Z</time>
      </trkpt>
      <trkpt lat="46.07469" lon="6.31793">
        <ele>556</ele>
        <time>2016-07-30T08:36:28.000Z</time>
      </trkpt>
      <trkpt lat="46.07461" lon="6.31785">
        <ele>559</ele>
        <time>2016-07-30T08:36:38.000Z</time>
      </trkpt>
      <trkpt lat="46.07455" lon="6.31774">
        <ele>562</ele>
        <time>2016-07-30T08:36:46.000Z</time>
      </trkpt>
      <trkpt lat="46.07449" lon="6.31763">
        <ele>564</ele>
        <time>2016-07-30T08:36:54.000Z</time>
      </trkpt>
      <trkpt lat="46.07439" lon="6.31756">
        <ele>564</ele>
        <time>2016-07-30T08:36:59.000Z</time>
      </trkpt>
      <trkpt lat="46.07431" lon="6.31747">
        <ele>558</ele>
        <time>2016-07-30T08:37:07.000Z</time>
      </trkpt>
      <trkpt lat="46.07423" lon="6.31738">
        <ele>557</ele>
        <time>2016-07-30T08:37:13.000Z</time>
      </trkpt>
      <trkpt lat="46.07417" lon="6.31729">
        <ele>558</ele>
        <time>2016-07-30T08:37:22.000Z</time>
      </trkpt>
      <trkpt lat="46.07409" lon="6.3172">
        <ele>558</ele>
        <time>2016-07-30T08:37:31.000Z</time>
      </trkpt>
      <trkpt lat="46.07399" lon="6.31713">
        <ele>554</ele>
        <time>2016-07-30T08:37:41.000Z</time>
      </trkpt>
      <trkpt lat="46.0739" lon="6.3171">
        <ele>555</ele>
        <time>2016-07-30T08:37:49.000Z</time>
      </trkpt>
      <trkpt lat="46.0738" lon="6.31704">
        <ele>556</ele>
        <time>2016-07-30T08:37:57.000Z</time>
      </trkpt>
      <trkpt lat="46.07372" lon="6.31697">
        <ele>568</ele>
        <time>2016-07-30T08:38:08.000Z</time>
      </trkpt>
      <trkpt lat="46.07364" lon="6.31689">
        <ele>570</ele>
        <time>2016-07-30T08:38:16.000Z</time>
      </trkpt>
      <trkpt lat="46.07356" lon="6.31683">
        <ele>571</ele>
        <time>2016-07-30T08:38:23.000Z</time>
      </trkpt>
      <trkpt lat="46.07347" lon="6.31677">
        <ele>572</ele>
        <time>2016-07-30T08:38:31.000Z</time>
      </trkpt>
      <trkpt lat="46.07337" lon="6.3167">
        <ele>572</ele>
        <time>2016-07-30T08:38:37.000Z</time>
      </trkpt>
      <trkpt lat="46.07329" lon="6.31664">
        <ele>570</ele>
        <time>2016-07-30T08:38:46.000Z</time>
      </trkpt>
      <trkpt lat="46.0732" lon="6.31654">
        <ele>573</ele>
        <time>2016-07-30T08:38:54.000Z</time>
      </trkpt>
      <trkpt lat="46.0731" lon="6.31653">
        <ele>570</ele>
        <time>2016-07-30T08:39:02.000Z</time>
      </trkpt>
      <trkpt lat="46.073" lon="6.3165">
        <ele>569</ele>
        <time>2016-07-30T08:39:09.000Z</time>
      </trkpt>
      <trkpt lat="46.07292" lon="6.31656">
        <ele>558</ele>
        <time>2016-07-30T08:39:16.000Z</time>
      </trkpt>
      <trkpt lat="46.07282" lon="6.31656">
        <ele>554</ele>
        <time>2016-07-30T08:39:24.000Z</time>
      </trkpt>
      <trkpt lat="46.07275" lon="6.31648">
        <ele>561</ele>
        <time>2016-07-30T08:39:28.000Z</time>
      </trkpt>
      <trkpt lat="46.07266" lon="6.31642">
        <ele>565</ele>
        <time>2016-07-30T08:39:40.000Z</time>
      </trkpt>
      <trkpt lat="46.07258" lon="6.31641">
        <ele>561</ele>
        <time>2016-07-30T08:40:04.000Z</time>
      </trkpt>
      <trkpt lat="46.07248" lon="6.31646">
        <ele>558</ele>
        <time>2016-07-30T08:40:09.000Z</time>
      </trkpt>
      <trkpt lat="46.07237" lon="6.31648">
        <ele>556</ele>
        <time>2016-07-30T08:40:13.000Z</time>
      </trkpt>
      <trkpt lat="46.0723" lon="6.3164">
        <ele>555</ele>
        <time>2016-07-30T08:40:18.000Z</time>
      </trkpt>
      <trkpt lat="46.07219" lon="6.31636">
        <ele>558</ele>
        <time>2016-07-30T08:40:23.000Z</time>
      </trkpt>
      <trkpt lat="46.07213" lon="6.31623">
        <ele>566</ele>
        <time>2016-07-30T08:40:26.000Z</time>
      </trkpt>
      <trkpt lat="46.07204" lon="6.31618">
        <ele>571</ele>
        <time>2016-07-30T08:40:31.000Z</time>
      </trkpt>
      <trkpt lat="46.07196" lon="6.31613">
        <ele>568</ele>
        <time>2016-07-30T08:40:42.000Z</time>
      </trkpt>
      <trkpt lat="46.07187" lon="6.31608">
        <ele>570</ele>
        <time>2016-07-30T08:40:49.000Z</time>
      </trkpt>
      <trkpt lat="46.0718" lon="6.31599">
        <ele>568</ele>
        <time>2016-07-30T08:40:57.000Z</time>
      </trkpt>
      <trkpt lat="46.07172" lon="6.31593">
        <ele>568</ele>
        <time>2016-07-30T08:41:04.000Z</time>
      </trkpt>
      <trkpt lat="46.07164" lon="6.31585">
        <ele>568</ele>
        <time>2016-07-30T08:41:11.000Z</time>
      </trkpt>
      <trkpt lat="46.07155" lon="6.31579">
        <ele>572</ele>
        <time>2016-07-30T08:41:20.000Z</time>
      </trkpt>
      <trkpt lat="46.07147" lon="6.31572">
        <ele>576</ele>
        <time>2016-07-30T08:41:31.000Z</time>
      </trkpt>
      <trkpt lat="46.07138" lon="6.31566">
        <ele>576</ele>
        <time>2016-07-30T08:41:39.000Z</time>
      </trkpt>
      <trkpt lat="46.0713" lon="6.3156">
        <ele>578</ele>
        <time>2016-07-30T08:41:47.000Z</time>
      </trkpt>
      <trkpt lat="46.07126" lon="6.31547">
        <ele>584</ele>
        <time>2016-07-30T08:41:57.000Z</time>
      </trkpt>
      <trkpt lat="46.07118" lon="6.31539">
        <ele>586</ele>
        <time>2016-07-30T08:42:05.000Z</time>
      </trkpt>
      <trkpt lat="46.07111" lon="6.31529">
        <ele>582</ele>
        <time>2016-07-30T08:42:13.000Z</time>
      </trkpt>
      <trkpt lat="46.07103" lon="6.31536">
        <ele>576</ele>
        <time>2016-07-30T08:42:24.000Z</time>
      </trkpt>
      <trkpt lat="46.07096" lon="6.31545">
        <ele>576</ele>
        <time>2016-07-30T08:42:32.000Z</time>
      </trkpt>
      <trkpt lat="46.07088" lon="6.31554">
        <ele>578</ele>
        <time>2016-07-30T08:42:40.000Z</time>
      </trkpt>
      <trkpt lat="46.0708" lon="6.31562">
        <ele>583</ele>
        <time>2016-07-30T08:42:49.000Z</time>
      </trkpt>
      <trkpt lat="46.07072" lon="6.3157">
        <ele>579</ele>
        <time>2016-07-30T08:42:57.000Z</time>
      </trkpt>
      <trkpt lat="46.07066" lon="6.3158">
        <ele>577</ele>
        <time>2016-07-30T08:43:04.000Z</time>
      </trkpt>
      <trkpt lat="46.07062" lon="6.31593">
        <ele>575</ele>
        <time>2016-07-30T08:43:11.000Z</time>
      </trkpt>
      <trkpt lat="46.07058" lon="6.31605">
        <ele>572</ele>
        <time>2016-07-30T08:43:19.000Z</time>
      </trkpt>
      <trkpt lat="46.07051" lon="6.31614">
        <ele>572</ele>
        <time>2016-07-30T08:43:24.000Z</time>
      </trkpt>
      <trkpt lat="46.07046" lon="6.31626">
        <ele>576</ele>
        <time>2016-07-30T08:43:33.000Z</time>
      </trkpt>
      <trkpt lat="46.07042" lon="6.31639">
        <ele>579</ele>
        <time>2016-07-30T08:43:44.000Z</time>
      </trkpt>
      <trkpt lat="46.07037" lon="6.31652">
        <ele>573</ele>
        <time>2016-07-30T08:43:50.000Z</time>
      </trkpt>
      <trkpt lat="46.07036" lon="6.31665">
        <ele>573</ele>
        <time>2016-07-30T08:43:56.000Z</time>
      </trkpt>
      <trkpt lat="46.07034" lon="6.31678">
        <ele>572</ele>
        <time>2016-07-30T08:44:02.000Z</time>
      </trkpt>
      <trkpt lat="46.07033" lon="6.31693">
        <ele>571</ele>
        <time>2016-07-30T08:44:10.000Z</time>
      </trkpt>
      <trkpt lat="46.07033" lon="6.31707">
        <ele>575</ele>
        <time>2016-07-30T08:44:16.000Z</time>
      </trkpt>
      <trkpt lat="46.07028" lon="6.31718">
        <ele>576</ele>
        <time>2016-07-30T08:44:23.000Z</time>
      </trkpt>
      <trkpt lat="46.07019" lon="6.31723">
        <ele>574</ele>
        <time>2016-07-30T08:44:29.000Z</time>
      </trkpt>
      <trkpt lat="46.07011" lon="6.31731">
        <ele>570</ele>
        <time>2016-07-30T08:44:33.000Z</time>
      </trkpt>
      <trkpt lat="46.07002" lon="6.31737">
        <ele>570</ele>
        <time>2016-07-30T08:44:42.000Z</time>
      </trkpt>
      <trkpt lat="46.06995" lon="6.31745">
        <ele>572</ele>
        <time>2016-07-30T08:44:47.000Z</time>
      </trkpt>
      <trkpt lat="46.06987" lon="6.31755">
        <ele>573</ele>
        <time>2016-07-30T08:44:52.000Z</time>
      </trkpt>
      <trkpt lat="46.06979" lon="6.31766">
        <ele>570</ele>
        <time>2016-07-30T08:44:58.000Z</time>
      </trkpt>
      <trkpt lat="46.06971" lon="6.31773">
        <ele>571</ele>
        <time>2016-07-30T08:45:06.000Z</time>
      </trkpt>
      <trkpt lat="46.06963" lon="6.31786">
        <ele>569</ele>
        <time>2016-07-30T08:45:13.000Z</time>
      </trkpt>
      <trkpt lat="46.06956" lon="6.31793">
        <ele>569</ele>
        <time>2016-07-30T08:45:24.000Z</time>
      </trkpt>
      <trkpt lat="46.06953" lon="6.3181">
        <ele>568</ele>
        <time>2016-07-30T08:45:29.000Z</time>
      </trkpt>
      <trkpt lat="46.06949" lon="6.31825">
        <ele>566</ele>
        <time>2016-07-30T08:45:34.000Z</time>
      </trkpt>
      <trkpt lat="46.06945" lon="6.31839">
        <ele>568</ele>
        <time>2016-07-30T08:45:40.000Z</time>
      </trkpt>
      <trkpt lat="46.06945" lon="6.31852">
        <ele>573</ele>
        <time>2016-07-30T08:45:51.000Z</time>
      </trkpt>
      <trkpt lat="46.06938" lon="6.31863">
        <ele>568</ele>
        <time>2016-07-30T08:45:59.000Z</time>
      </trkpt>
      <trkpt lat="46.06928" lon="6.31869">
        <ele>568</ele>
        <time>2016-07-30T08:46:06.000Z</time>
      </trkpt>
      <trkpt lat="46.06918" lon="6.31866">
        <ele>568</ele>
        <time>2016-07-30T08:46:14.000Z</time>
      </trkpt>
      <trkpt lat="46.06909" lon="6.31859">
        <ele>573</ele>
        <time>2016-07-30T08:46:24.000Z</time>
      </trkpt>
      <trkpt lat="46.06899" lon="6.31861">
        <ele>572</ele>
        <time>2016-07-30T08:46:31.000Z</time>
      </trkpt>
      <trkpt lat="46.06894" lon="6.31873">
        <ele>573</ele>
        <time>2016-07-30T08:46:37.000Z</time>
      </trkpt>
      <trkpt lat="46.06886" lon="6.3188">
        <ele>572</ele>
        <time>2016-07-30T08:46:46.000Z</time>
      </trkpt>
      <trkpt lat="46.06876" lon="6.31888">
        <ele>572</ele>
        <time>2016-07-30T08:46:53.000Z</time>
      </trkpt>
      <trkpt lat="46.06867" lon="6.31893">
        <ele>569</ele>
        <time>2016-07-30T08:47:10.000Z</time>
      </trkpt>
      <trkpt lat="46.06858" lon="6.31899">
        <ele>569</ele>
        <time>2016-07-30T08:47:15.000Z</time>
      </trkpt>
      <trkpt lat="46.0685" lon="6.31905">
        <ele>570</ele>
        <time>2016-07-30T08:47:20.000Z</time>
      </trkpt>
      <trkpt lat="46.06841" lon="6.31911">
        <ele>572</ele>
        <time>2016-07-30T08:47:26.000Z</time>
      </trkpt>
      <trkpt lat="46.06832" lon="6.31918">
        <ele>573</ele>
        <time>2016-07-30T08:47:33.000Z</time>
      </trkpt>
      <trkpt lat="46.06823" lon="6.31915">
        <ele>577</ele>
        <time>2016-07-30T08:47:40.000Z</time>
      </trkpt>
      <trkpt lat="46.06815" lon="6.31907">
        <ele>574</ele>
        <time>2016-07-30T08:47:48.000Z</time>
      </trkpt>
      <trkpt lat="46.06807" lon="6.31899">
        <ele>571</ele>
        <time>2016-07-30T08:47:56.000Z</time>
      </trkpt>
      <trkpt lat="46.068" lon="6.3189">
        <ele>571</ele>
        <time>2016-07-30T08:48:05.000Z</time>
      </trkpt>
      <trkpt lat="46.06793" lon="6.31879">
        <ele>569</ele>
        <time>2016-07-30T08:48:11.000Z</time>
      </trkpt>
      <trkpt lat="46.06784" lon="6.31874">
        <ele>569</ele>
        <time>2016-07-30T08:48:17.000Z</time>
      </trkpt>
      <trkpt lat="46.06777" lon="6.31883">
        <ele>569</ele>
        <time>2016-07-30T08:48:24.000Z</time>
      </trkpt>
      <trkpt lat="46.06767" lon="6.31889">
        <ele>572</ele>
        <time>2016-07-30T08:48:34.000Z</time>
      </trkpt>
      <trkpt lat="46.06762" lon="6.31899">
        <ele>574</ele>
        <time>2016-07-30T08:48:40.000Z</time>
      </trkpt>
      <trkpt lat="46.06753" lon="6.31904">
        <ele>576</ele>
        <time>2016-07-30T08:48:47.000Z</time>
      </trkpt>
      <trkpt lat="46.06744" lon="6.31913">
        <ele>573</ele>
        <time>2016-07-30T08:48:55.000Z</time>
      </trkpt>
      <trkpt lat="46.06737" lon="6.3192">
        <ele>573</ele>
        <time>2016-07-30T08:49:01.000Z</time>
      </trkpt>
      <trkpt lat="46.06729" lon="6.31929">
        <ele>576</ele>
        <time>2016-07-30T08:49:08.000Z</time>
      </trkpt>
      <trkpt lat="46.06721" lon="6.31936">
        <ele>576</ele>
        <time>2016-07-30T08:49:15.000Z</time>
      </trkpt>
      <trkpt lat="46.06711" lon="6.31944">
        <ele>577</ele>
        <time>2016-07-30T08:49:23.000Z</time>
      </trkpt>
      <trkpt lat="46.06716" lon="6.31958">
        <ele>576</ele>
        <time>2016-07-30T08:49:37.000Z</time>
      </trkpt>
      <trkpt lat="46.06714" lon="6.31972">
        <ele>579</ele>
        <time>2016-07-30T08:49:49.000Z</time>
      </trkpt>
    </trkseg>
  </trk>
</gpx>